UAE249 SBGL-OMDB
Flight info
| Callsign | UAE249 |
|---|---|
| Flight time | 10h 43m |
| Altitude | 31000 |
| Route | ADA UL224 CIDER DCT 2600S03730W 27S035W 2730S03230W 28S030W 2830S02730W 29S025W 2900S02230W 29S020W 2900S01730W 29S015W 2900S01230W/N0497F330 29S010W 28S005W 27S000E 26S005E 24S010E DCT NIBEK UN183 XALVI UT945 VEDRY UM439 APMEX/N0495F350 UM439 VLS UL431 ODGAT DCT ELAVA UL437 MOGDU/N0493F370 UL437 VEDET B400 DAXAM Y414 DEDSO R401 VELIK/N0489F380 R401 MUSAP/N0500F350 R401 PEDOG Q308 KIPOK Q568 IMPED |
| Aircraft | B77W/H-SDE1E2E3FGHIJ2J3J4J5M1RWXY/LB1D1 |
Departure
| Time | 2026-05-07 13:46 |
|---|---|
| Airport | Rio Galeão – Tom Jobim International Airport (SBGL) |
Arrival
| Time | 2026-05-08 00:30 |
|---|---|
| Airport | Dubai International Airport (OMDB) |
| Time | Latitude | Longitude | Altitude | Speed | Heading |
|---|---|---|---|---|---|
| 2026-05-07 13:08 | -22.81899 | -43.24282 | 26 ft | 0 kts | 304° |
| 2026-05-07 13:08 | -22.81842 | -43.24221 | 26 ft | 0 kts | 304° |
| 2026-05-07 13:09 | -22.81842 | -43.24229 | 26 ft | 0 kts | 306° |
| 2026-05-07 13:09 | -22.81846 | -43.24223 | 26 ft | 0 kts | 306° |
| 2026-05-07 13:32 | -22.81837 | -43.24214 | 26 ft | 4 kts | 24° |
| 2026-05-07 13:32 | -22.81846 | -43.24216 | 25 ft | 4 kts | 337° |
| 2026-05-07 13:33 | -22.81861 | -43.24198 | 24 ft | 4 kts | 304° |
| 2026-05-07 13:33 | -22.81874 | -43.24177 | 24 ft | 4 kts | 310° |
| 2026-05-07 13:33 | -22.81891 | -43.24164 | 26 ft | 4 kts | 20° |
| 2026-05-07 13:33 | -22.81913 | -43.24180 | 24 ft | 4 kts | 36° |
| 2026-05-07 13:34 | -22.81925 | -43.24188 | 24 ft | 1 kts | 22° |
| 2026-05-07 13:34 | -22.81927 | -43.24189 | 24 ft | 0 kts | 22° |
| 2026-05-07 13:37 | -22.81911 | -43.24181 | 24 ft | 6 kts | 27° |
| 2026-05-07 13:38 | -22.81892 | -43.24132 | 26 ft | 8 kts | 109° |
| 2026-05-07 13:38 | -22.81956 | -43.24127 | 26 ft | 14 kts | 204° |
| 2026-05-07 13:38 | -22.82056 | -43.24203 | 29 ft | 21 kts | 217° |
| 2026-05-07 13:38 | -22.82147 | -43.24276 | 30 ft | 12 kts | 217° |
| 2026-05-07 13:39 | -22.82235 | -43.24345 | 29 ft | 20 kts | 216° |
| 2026-05-07 13:39 | -22.82320 | -43.24448 | 26 ft | 16 kts | 278° |
| 2026-05-07 13:39 | -22.82253 | -43.24569 | 29 ft | 22 kts | 306° |
| 2026-05-07 13:39 | -22.82150 | -43.24724 | 28 ft | 28 kts | 306° |
| 2026-05-07 13:40 | -22.82042 | -43.24885 | 28 ft | 27 kts | 306° |
| 2026-05-07 13:40 | -22.81922 | -43.25065 | 29 ft | 31 kts | 306° |
| 2026-05-07 13:40 | -22.81795 | -43.25261 | 27 ft | 32 kts | 305° |
| 2026-05-07 13:40 | -22.81681 | -43.25435 | 27 ft | 26 kts | 306° |
| 2026-05-07 13:41 | -22.81574 | -43.25594 | 27 ft | 26 kts | 305° |
| 2026-05-07 13:41 | -22.81470 | -43.25753 | 27 ft | 26 kts | 305° |
| 2026-05-07 13:41 | -22.81364 | -43.25913 | 29 ft | 26 kts | 306° |
| 2026-05-07 13:41 | -22.81274 | -43.25960 | 28 ft | 15 kts | 38° |
| 2026-05-07 13:42 | -22.81195 | -43.25875 | 30 ft | 16 kts | 26° |
| 2026-05-07 13:42 | -22.81092 | -43.25917 | 27 ft | 17 kts | 1° |
| 2026-05-07 13:42 | -22.80990 | -43.25854 | 27 ft | 17 kts | 36° |
| 2026-05-07 13:42 | -22.80892 | -43.25780 | 28 ft | 17 kts | 35° |
| 2026-05-07 13:43 | -22.80794 | -43.25705 | 31 ft | 17 kts | 36° |
| 2026-05-07 13:43 | -22.80699 | -43.25631 | 34 ft | 17 kts | 35° |
| 2026-05-07 13:43 | -22.80603 | -43.25557 | 34 ft | 17 kts | 35° |
| 2026-05-07 13:43 | -22.80493 | -43.25558 | 35 ft | 18 kts | 329° |
| 2026-05-07 13:44 | -22.80381 | -43.25612 | 33 ft | 19 kts | 10° |
| 2026-05-07 13:44 | -22.80337 | -43.25584 | 32 ft | 0 kts | 36° |
| 2026-05-07 13:44 | -22.80331 | -43.25579 | 31 ft | 5 kts | 36° |
| 2026-05-07 13:45 | -22.80274 | -43.25532 | 30 ft | 16 kts | 38° |
| 2026-05-07 13:45 | -22.80170 | -43.25426 | 30 ft | 24 kts | 62° |
| 2026-05-07 13:45 | -22.80096 | -43.25153 | 30 ft | 60 kts | 74° |
| 2026-05-07 13:45 | -22.79918 | -43.24471 | 37 ft | 129 kts | 74° |
| 2026-05-07 13:46 | -22.79617 | -43.23313 | 34 ft | 188 kts | 73° |
| 2026-05-07 13:46 | -22.79231 | -43.21846 | 244 ft | 206 kts | 74° |
| 2026-05-07 13:46 | -22.78862 | -43.20322 | 777 ft | 210 kts | 74° |
| 2026-05-07 13:46 | -22.78476 | -43.18792 | 1376 ft | 213 kts | 73° |
| 2026-05-07 13:47 | -22.78063 | -43.17259 | 1963 ft | 211 kts | 72° |
| 2026-05-07 13:47 | -22.77720 | -43.15646 | 2138 ft | 229 kts | 77° |
| 2026-05-07 13:47 | -22.77415 | -43.13870 | 2259 ft | 249 kts | 78° |
| 2026-05-07 13:47 | -22.77072 | -43.11972 | 2540 ft | 262 kts | 77° |
| 2026-05-07 13:48 | -22.76696 | -43.10036 | 3011 ft | 269 kts | 76° |
| 2026-05-07 13:48 | -22.76290 | -43.08041 | 3569 ft | 273 kts | 75° |
| 2026-05-07 13:48 | -22.75870 | -43.06026 | 4176 ft | 275 kts | 75° |
| 2026-05-07 13:48 | -22.75442 | -43.04000 | 4770 ft | 278 kts | 75° |
| 2026-05-07 13:49 | -22.75008 | -43.01949 | 5348 ft | 280 kts | 75° |
| 2026-05-07 13:49 | -22.74568 | -42.99887 | 5944 ft | 281 kts | 75° |
| 2026-05-07 13:49 | -22.74125 | -42.97815 | 6530 ft | 284 kts | 75° |
| 2026-05-07 13:49 | -22.73677 | -42.95729 | 7096 ft | 286 kts | 75° |
| 2026-05-07 13:50 | -22.73229 | -42.93626 | 7646 ft | 287 kts | 75° |
| 2026-05-07 13:50 | -22.72782 | -42.91538 | 8184 ft | 289 kts | 75° |
| 2026-05-07 13:50 | -22.72324 | -42.89408 | 8745 ft | 291 kts | 75° |
| 2026-05-07 13:50 | -22.71863 | -42.87261 | 9270 ft | 294 kts | 75° |
| 2026-05-07 13:51 | -22.71545 | -42.85079 | 9708 ft | 297 kts | 90° |
| 2026-05-07 13:51 | -22.71790 | -42.82836 | 10048 ft | 304 kts | 96° |
| 2026-05-07 13:51 | -22.72124 | -42.80550 | 10379 ft | 314 kts | 96° |
| 2026-05-07 13:51 | -22.72466 | -42.78142 | 10512 ft | 332 kts | 96° |
| 2026-05-07 13:52 | -22.72816 | -42.75601 | 10644 ft | 350 kts | 96° |
| 2026-05-07 13:52 | -22.73173 | -42.72966 | 10793 ft | 366 kts | 96° |
| 2026-05-07 13:52 | -22.73543 | -42.70189 | 11140 ft | 377 kts | 96° |
| 2026-05-07 13:52 | -22.73918 | -42.67359 | 11594 ft | 384 kts | 96° |
| 2026-05-07 13:53 | -22.74295 | -42.64477 | 12171 ft | 388 kts | 96° |
| 2026-05-07 13:53 | -22.74672 | -42.61576 | 12823 ft | 390 kts | 97° |
| 2026-05-07 13:53 | -22.75049 | -42.58658 | 13456 ft | 392 kts | 97° |
| 2026-05-07 13:53 | -22.75427 | -42.55724 | 14052 ft | 396 kts | 96° |
| 2026-05-07 13:54 | -22.75808 | -42.52759 | 14557 ft | 399 kts | 97° |
| 2026-05-07 13:54 | -22.76192 | -42.49765 | 15072 ft | 403 kts | 97° |
| 2026-05-07 13:54 | -22.76572 | -42.46792 | 15619 ft | 405 kts | 97° |
| 2026-05-07 13:54 | -22.76958 | -42.43761 | 16142 ft | 408 kts | 98° |
| 2026-05-07 13:55 | -22.77350 | -42.40702 | 16641 ft | 411 kts | 98° |
| 2026-05-07 13:55 | -22.77744 | -42.37622 | 17190 ft | 414 kts | 98° |
| 2026-05-07 13:55 | -22.78139 | -42.34522 | 17698 ft | 417 kts | 98° |
| 2026-05-07 13:55 | -22.78537 | -42.31394 | 18217 ft | 421 kts | 98° |
| 2026-05-07 13:56 | -22.78936 | -42.28246 | 18705 ft | 423 kts | 98° |
| 2026-05-07 13:56 | -22.79337 | -42.25079 | 19133 ft | 426 kts | 98° |
| 2026-05-07 13:56 | -22.79741 | -42.21885 | 19559 ft | 429 kts | 99° |
| 2026-05-07 13:56 | -22.80141 | -42.18716 | 20043 ft | 432 kts | 98° |
| 2026-05-07 13:57 | -22.80548 | -42.15488 | 20453 ft | 435 kts | 99° |
| 2026-05-07 13:57 | -22.80960 | -42.12228 | 20913 ft | 436 kts | 101° |
| 2026-05-07 13:57 | -22.81737 | -42.09070 | 21191 ft | 436 kts | 118° |
| 2026-05-07 13:57 | -22.83428 | -42.06365 | 21513 ft | 433 kts | 132° |
| 2026-05-07 13:58 | -22.85400 | -42.03865 | 21786 ft | 439 kts | 131° |
| 2026-05-07 13:58 | -22.87342 | -42.01298 | 22239 ft | 442 kts | 130° |
| 2026-05-07 13:58 | -22.89264 | -41.98699 | 22792 ft | 441 kts | 130° |
| 2026-05-07 13:58 | -22.91149 | -41.96130 | 23288 ft | 442 kts | 130° |
| 2026-05-07 13:59 | -22.93072 | -41.93506 | 23627 ft | 446 kts | 130° |
| 2026-05-07 13:59 | -22.94968 | -41.90920 | 23854 ft | 452 kts | 130° |
| 2026-05-07 13:59 | -22.96931 | -41.88241 | 24244 ft | 452 kts | 130° |
| 2026-05-07 13:59 | -22.98886 | -41.85572 | 24646 ft | 453 kts | 130° |
| 2026-05-07 14:00 | -23.00854 | -41.82888 | 24985 ft | 456 kts | 130° |
| 2026-05-07 14:00 | -23.02835 | -41.80186 | 25287 ft | 459 kts | 131° |
| 2026-05-07 14:00 | -23.04825 | -41.77469 | 25631 ft | 461 kts | 131° |
| 2026-05-07 14:00 | -23.06797 | -41.74775 | 25963 ft | 463 kts | 131° |
| 2026-05-07 14:01 | -23.08805 | -41.72031 | 26269 ft | 465 kts | 131° |
| 2026-05-07 14:01 | -23.10820 | -41.69275 | 26610 ft | 467 kts | 131° |
| 2026-05-07 14:01 | -23.12841 | -41.66509 | 26947 ft | 468 kts | 131° |
| 2026-05-07 14:01 | -23.14868 | -41.63732 | 27259 ft | 470 kts | 131° |
| 2026-05-07 14:02 | -23.16903 | -41.60943 | 27560 ft | 472 kts | 131° |
| 2026-05-07 14:02 | -23.18945 | -41.58143 | 27881 ft | 473 kts | 132° |
| 2026-05-07 14:02 | -23.20990 | -41.55338 | 28182 ft | 475 kts | 132° |
| 2026-05-07 14:02 | -23.23050 | -41.52511 | 28428 ft | 478 kts | 132° |
| 2026-05-07 14:03 | -23.25095 | -41.49702 | 28625 ft | 481 kts | 132° |
| 2026-05-07 14:03 | -23.27179 | -41.46837 | 28895 ft | 483 kts | 132° |
| 2026-05-07 14:03 | -23.29266 | -41.43967 | 29184 ft | 484 kts | 132° |
| 2026-05-07 14:03 | -23.31357 | -41.41090 | 29443 ft | 485 kts | 132° |
| 2026-05-07 14:04 | -23.33448 | -41.38210 | 29694 ft | 487 kts | 132° |
| 2026-05-07 14:04 | -23.35556 | -41.35307 | 29905 ft | 489 kts | 132° |
| 2026-05-07 14:04 | -23.37660 | -41.32407 | 30138 ft | 490 kts | 132° |
| 2026-05-07 14:04 | -23.39770 | -41.29496 | 30411 ft | 489 kts | 132° |
| 2026-05-07 14:05 | -23.41872 | -41.26594 | 30747 ft | 487 kts | 133° |
| 2026-05-07 14:05 | -23.43935 | -41.23744 | 31047 ft | 485 kts | 133° |
| 2026-05-07 14:05 | -23.46034 | -41.20845 | 31064 ft | 489 kts | 133° |
| 2026-05-07 14:06 | -23.50233 | -41.15040 | 31124 ft | 486 kts | 133° |
| 2026-05-07 14:06 | -23.54396 | -41.09276 | 31139 ft | 483 kts | 133° |
| 2026-05-07 14:07 | -23.58544 | -41.03528 | 31131 ft | 482 kts | 133° |
| 2026-05-07 14:07 | -23.62692 | -40.97775 | 31138 ft | 483 kts | 133° |
| 2026-05-07 14:08 | -23.66813 | -40.92052 | 31145 ft | 483 kts | 133° |
| 2026-05-07 14:08 | -23.70976 | -40.86265 | 31136 ft | 485 kts | 132° |
| 2026-05-07 14:09 | -23.75141 | -40.80467 | 31138 ft | 487 kts | 132° |
| 2026-05-07 14:09 | -23.79322 | -40.74639 | 31135 ft | 488 kts | 132° |
| 2026-05-07 14:10 | -23.83477 | -40.68840 | 31142 ft | 488 kts | 132° |
| 2026-05-07 14:10 | -23.87666 | -40.62988 | 31137 ft | 489 kts | 132° |
| 2026-05-07 14:11 | -23.91854 | -40.57130 | 31131 ft | 489 kts | 132° |
| 2026-05-07 14:11 | -23.96039 | -40.51268 | 31135 ft | 489 kts | 132° |
| 2026-05-07 14:12 | -24.00188 | -40.45452 | 31145 ft | 489 kts | 132° |
| 2026-05-07 14:12 | -24.04372 | -40.39579 | 31140 ft | 489 kts | 132° |
| 2026-05-07 14:13 | -24.08547 | -40.33709 | 31140 ft | 489 kts | 132° |
| 2026-05-07 14:13 | -24.12726 | -40.27830 | 31144 ft | 490 kts | 132° |
| 2026-05-07 14:14 | -24.16850 | -40.21946 | 31146 ft | 491 kts | 131° |
| 2026-05-07 14:14 | -24.20974 | -40.15970 | 31143 ft | 492 kts | 131° |
| 2026-05-07 14:15 | -24.25102 | -40.09980 | 31147 ft | 493 kts | 131° |
| 2026-05-07 14:15 | -24.29240 | -40.03982 | 31134 ft | 494 kts | 131° |
| 2026-05-07 14:16 | -24.33356 | -39.98015 | 31138 ft | 494 kts | 130° |
| 2026-05-07 14:16 | -24.37499 | -39.92004 | 31135 ft | 495 kts | 130° |
| 2026-05-07 14:17 | -24.41646 | -39.85977 | 31141 ft | 495 kts | 130° |
| 2026-05-07 14:17 | -24.45793 | -39.79943 | 31159 ft | 495 kts | 130° |
| 2026-05-07 14:18 | -24.49939 | -39.73904 | 31144 ft | 495 kts | 130° |
| 2026-05-07 14:18 | -24.54057 | -39.67897 | 31143 ft | 496 kts | 130° |
| 2026-05-07 14:19 | -24.58203 | -39.61843 | 31150 ft | 496 kts | 130° |
| 2026-05-07 14:19 | -24.62346 | -39.55785 | 31151 ft | 496 kts | 130° |
| 2026-05-07 14:20 | -24.66494 | -39.49711 | 31149 ft | 497 kts | 130° |
| 2026-05-07 14:20 | -24.70614 | -39.43672 | 31150 ft | 497 kts | 130° |
| 2026-05-07 14:21 | -24.74760 | -39.37588 | 31150 ft | 497 kts | 130° |
| 2026-05-07 14:21 | -24.78903 | -39.31499 | 31156 ft | 497 kts | 130° |
| 2026-05-07 14:22 | -24.83044 | -39.25406 | 31154 ft | 497 kts | 130° |
| 2026-05-07 14:22 | -24.87182 | -39.19310 | 31153 ft | 497 kts | 130° |
| 2026-05-07 14:23 | -24.91284 | -39.13259 | 31158 ft | 497 kts | 130° |
| 2026-05-07 14:23 | -24.95414 | -39.07159 | 31163 ft | 496 kts | 130° |
| 2026-05-07 14:24 | -24.99541 | -39.01056 | 31153 ft | 496 kts | 130° |
| 2026-05-07 14:24 | -25.03665 | -38.94949 | 31155 ft | 497 kts | 129° |
| 2026-05-07 14:25 | -25.07761 | -38.88877 | 31162 ft | 497 kts | 129° |
| 2026-05-07 14:25 | -25.11879 | -38.82763 | 31161 ft | 497 kts | 129° |
| 2026-05-07 14:26 | -25.16002 | -38.76635 | 31158 ft | 497 kts | 129° |
| 2026-05-07 14:26 | -25.20128 | -38.70493 | 31159 ft | 498 kts | 129° |
| 2026-05-07 14:27 | -25.24218 | -38.64398 | 31167 ft | 498 kts | 129° |
| 2026-05-07 14:27 | -25.28337 | -38.58251 | 31159 ft | 498 kts | 129° |
| 2026-05-07 14:28 | -25.32452 | -38.52102 | 31159 ft | 497 kts | 129° |
| 2026-05-07 14:28 | -25.36562 | -38.45954 | 31160 ft | 497 kts | 129° |
| 2026-05-07 14:29 | -25.40639 | -38.39846 | 31161 ft | 497 kts | 129° |
| 2026-05-07 14:29 | -25.44736 | -38.33701 | 31164 ft | 497 kts | 129° |
| 2026-05-07 14:30 | -25.48834 | -38.27546 | 31167 ft | 497 kts | 129° |
| 2026-05-07 14:30 | -25.52929 | -38.21387 | 31167 ft | 497 kts | 129° |
| 2026-05-07 14:31 | -25.56996 | -38.15264 | 31174 ft | 497 kts | 129° |
| 2026-05-07 14:31 | -25.61090 | -38.09091 | 31169 ft | 497 kts | 129° |
| 2026-05-07 14:32 | -25.65183 | -38.02910 | 31166 ft | 497 kts | 129° |
| 2026-05-07 14:32 | -25.69270 | -37.96731 | 31169 ft | 497 kts | 129° |
| 2026-05-07 14:33 | -25.73360 | -37.90539 | 31171 ft | 498 kts | 128° |
| 2026-05-07 14:33 | -25.77423 | -37.84379 | 31175 ft | 498 kts | 128° |
| 2026-05-07 14:34 | -25.81513 | -37.78172 | 31178 ft | 498 kts | 128° |
| 2026-05-07 14:34 | -25.85601 | -37.71958 | 31172 ft | 498 kts | 128° |
| 2026-05-07 14:35 | -25.89691 | -37.65732 | 31176 ft | 499 kts | 128° |
| 2026-05-07 14:35 | -25.93752 | -37.59541 | 31181 ft | 500 kts | 128° |
| 2026-05-07 14:36 | -25.97848 | -37.53291 | 31181 ft | 500 kts | 128° |
| 2026-05-07 14:36 | -26.01493 | -37.46685 | 31177 ft | 504 kts | 116° |
| 2026-05-07 14:37 | -26.04374 | -37.39576 | 31186 ft | 505 kts | 115° |
| 2026-05-07 14:37 | -26.08670 | -37.28926 | 31183 ft | 506 kts | 116° |
| 2026-05-07 14:38 | -26.11581 | -37.21801 | 31184 ft | 506 kts | 116° |
| 2026-05-07 14:38 | -26.14501 | -37.14671 | 31177 ft | 506 kts | 115° |
| 2026-05-07 14:39 | -26.17416 | -37.07540 | 31185 ft | 507 kts | 115° |
| 2026-05-07 14:39 | -26.20330 | -37.00395 | 31186 ft | 507 kts | 115° |
| 2026-05-07 14:40 | -26.23222 | -36.93290 | 31187 ft | 507 kts | 115° |
| 2026-05-07 14:40 | -26.26131 | -36.86131 | 31184 ft | 507 kts | 115° |
| 2026-05-07 14:41 | -26.29037 | -36.78964 | 31185 ft | 508 kts | 115° |
| 2026-05-07 14:41 | -26.31942 | -36.71791 | 31175 ft | 508 kts | 115° |
| 2026-05-07 14:42 | -26.34824 | -36.64660 | 31196 ft | 508 kts | 115° |
| 2026-05-07 14:42 | -26.37721 | -36.57483 | 31197 ft | 508 kts | 115° |
| 2026-05-07 14:43 | -26.40617 | -36.50293 | 31180 ft | 508 kts | 115° |
| 2026-05-07 14:43 | -26.43509 | -36.43099 | 31196 ft | 508 kts | 115° |
| 2026-05-07 14:44 | -26.46379 | -36.35950 | 31197 ft | 508 kts | 115° |
| 2026-05-07 14:44 | -26.49265 | -36.28749 | 31180 ft | 508 kts | 115° |
| 2026-05-07 14:45 | -26.52143 | -36.21554 | 31195 ft | 508 kts | 115° |
| 2026-05-07 14:45 | -26.55021 | -36.14347 | 31199 ft | 508 kts | 115° |
| 2026-05-07 14:46 | -26.57895 | -36.07135 | 31184 ft | 508 kts | 115° |
| 2026-05-07 14:46 | -26.60747 | -35.99968 | 31191 ft | 508 kts | 114° |
| 2026-05-07 14:47 | -26.63616 | -35.92746 | 31202 ft | 508 kts | 114° |
| 2026-05-07 14:47 | -26.66481 | -35.85519 | 31204 ft | 508 kts | 114° |
| 2026-05-07 14:48 | -26.69344 | -35.78287 | 31192 ft | 509 kts | 114° |
| 2026-05-07 14:48 | -26.72204 | -35.71048 | 31198 ft | 509 kts | 114° |
| 2026-05-07 14:49 | -26.75039 | -35.63858 | 31199 ft | 509 kts | 114° |
| 2026-05-07 14:49 | -26.77894 | -35.56607 | 31200 ft | 509 kts | 114° |
| 2026-05-07 14:50 | -26.80746 | -35.49350 | 31202 ft | 509 kts | 114° |
| 2026-05-07 14:50 | -26.83594 | -35.42088 | 31201 ft | 509 kts | 114° |
| 2026-05-07 14:51 | -26.86419 | -35.34874 | 31199 ft | 510 kts | 114° |
| 2026-05-07 14:51 | -26.89262 | -35.27600 | 31199 ft | 510 kts | 114° |
| 2026-05-07 14:52 | -26.92102 | -35.20320 | 31200 ft | 510 kts | 114° |
| 2026-05-07 14:52 | -26.94940 | -35.13030 | 31203 ft | 510 kts | 114° |
| 2026-05-07 14:53 | -26.97758 | -35.05782 | 31201 ft | 511 kts | 114° |
| 2026-05-07 14:53 | -27.00386 | -34.98388 | 31196 ft | 511 kts | 107° |
| 2026-05-07 14:54 | -27.02051 | -34.90653 | 31205 ft | 511 kts | 102° |
| 2026-05-07 14:54 | -27.03609 | -34.82872 | 31204 ft | 511 kts | 102° |
| 2026-05-07 14:55 | -27.05187 | -34.75144 | 31206 ft | 512 kts | 103° |
| 2026-05-07 14:55 | -27.06799 | -34.67363 | 31206 ft | 512 kts | 103° |
| 2026-05-07 14:56 | -27.08414 | -34.59576 | 31209 ft | 512 kts | 103° |
| 2026-05-07 14:56 | -27.10025 | -34.51782 | 31207 ft | 513 kts | 102° |
| 2026-05-07 14:57 | -27.11619 | -34.44037 | 31200 ft | 513 kts | 102° |
| 2026-05-07 14:57 | -27.13217 | -34.36244 | 31205 ft | 513 kts | 102° |
| 2026-05-07 14:58 | -27.14813 | -34.28436 | 31207 ft | 513 kts | 102° |
| 2026-05-07 14:58 | -27.16406 | -34.20622 | 31208 ft | 513 kts | 102° |
| 2026-05-07 14:59 | -27.17984 | -34.12860 | 31206 ft | 513 kts | 102° |
| 2026-05-07 14:59 | -27.19567 | -34.05047 | 31207 ft | 513 kts | 102° |
| 2026-05-07 15:00 | -27.21143 | -33.97247 | 31210 ft | 512 kts | 102° |
| 2026-05-07 15:00 | -27.22716 | -33.89441 | 31210 ft | 512 kts | 102° |
| 2026-05-07 15:01 | -27.24283 | -33.81635 | 31213 ft | 512 kts | 102° |
| 2026-05-07 15:01 | -27.25836 | -33.73878 | 31209 ft | 512 kts | 102° |
| 2026-05-07 15:02 | -27.27395 | -33.66068 | 31215 ft | 512 kts | 102° |
| 2026-05-07 15:02 | -27.28948 | -33.58263 | 31210 ft | 511 kts | 102° |
| 2026-05-07 15:03 | -27.30494 | -33.50473 | 31211 ft | 511 kts | 102° |
| 2026-05-07 15:03 | -27.32035 | -33.42679 | 31213 ft | 510 kts | 102° |
| 2026-05-07 15:04 | -27.33561 | -33.34942 | 31212 ft | 510 kts | 102° |
| 2026-05-07 15:04 | -27.35091 | -33.27158 | 31213 ft | 509 kts | 102° |
| 2026-05-07 15:05 | -27.36616 | -33.19375 | 31211 ft | 509 kts | 102° |
| 2026-05-07 15:05 | -27.38137 | -33.11589 | 31211 ft | 510 kts | 102° |
| 2026-05-07 15:06 | -27.39653 | -33.03804 | 31215 ft | 510 kts | 102° |
| 2026-05-07 15:06 | -27.41158 | -32.96053 | 31212 ft | 511 kts | 102° |
| 2026-05-07 15:07 | -27.42670 | -32.88240 | 31212 ft | 511 kts | 102° |
| 2026-05-07 15:07 | -27.44177 | -32.80425 | 31216 ft | 511 kts | 102° |
| 2026-05-07 15:08 | -27.45681 | -32.72604 | 31217 ft | 511 kts | 102° |
| 2026-05-07 15:08 | -27.47171 | -32.64832 | 31218 ft | 511 kts | 102° |
| 2026-05-07 15:09 | -27.48666 | -32.57006 | 31214 ft | 511 kts | 102° |
| 2026-05-07 15:09 | -27.50160 | -32.49173 | 31217 ft | 511 kts | 102° |
| 2026-05-07 15:10 | -27.51748 | -32.41416 | 31220 ft | 511 kts | 103° |
| 2026-05-07 15:10 | -27.53404 | -32.33633 | 31225 ft | 511 kts | 103° |
| 2026-05-07 15:11 | -27.55050 | -32.25834 | 31223 ft | 511 kts | 103° |
| 2026-05-07 15:11 | -27.56673 | -32.18041 | 31222 ft | 512 kts | 103° |
| 2026-05-07 15:12 | -27.58288 | -32.10235 | 31221 ft | 512 kts | 103° |
| 2026-05-07 15:12 | -27.59888 | -32.02477 | 31221 ft | 511 kts | 103° |
| 2026-05-07 15:13 | -27.61495 | -31.94669 | 31225 ft | 511 kts | 103° |
| 2026-05-07 15:13 | -27.63098 | -31.86859 | 31227 ft | 511 kts | 103° |
| 2026-05-07 15:14 | -27.64695 | -31.79050 | 31227 ft | 511 kts | 103° |
| 2026-05-07 15:14 | -27.66275 | -31.71304 | 31219 ft | 510 kts | 103° |
| 2026-05-07 15:15 | -27.67858 | -31.63520 | 31222 ft | 508 kts | 103° |
| 2026-05-07 15:15 | -27.69431 | -31.55761 | 31223 ft | 507 kts | 103° |
| 2026-05-07 15:16 | -27.70999 | -31.48003 | 31230 ft | 506 kts | 103° |
| 2026-05-07 15:16 | -27.72561 | -31.40256 | 31225 ft | 506 kts | 103° |
| 2026-05-07 15:17 | -27.74105 | -31.32568 | 31228 ft | 505 kts | 103° |
| 2026-05-07 15:17 | -27.75655 | -31.24828 | 31228 ft | 506 kts | 103° |
| 2026-05-07 15:18 | -27.77202 | -31.17083 | 31229 ft | 506 kts | 103° |
| 2026-05-07 15:18 | -27.78744 | -31.09337 | 31230 ft | 506 kts | 103° |
| 2026-05-07 15:19 | -27.80274 | -31.01627 | 31223 ft | 507 kts | 103° |
| 2026-05-07 15:19 | -27.81810 | -30.93859 | 31237 ft | 507 kts | 103° |
| 2026-05-07 15:20 | -27.83342 | -30.86093 | 31230 ft | 506 kts | 103° |
| 2026-05-07 15:20 | -27.84868 | -30.78333 | 31231 ft | 505 kts | 103° |
| 2026-05-07 15:21 | -27.86387 | -30.70583 | 31230 ft | 505 kts | 103° |
| 2026-05-07 15:21 | -27.87888 | -30.62895 | 31238 ft | 504 kts | 103° |
| 2026-05-07 15:22 | -27.89390 | -30.55184 | 31228 ft | 502 kts | 103° |
| 2026-05-07 15:22 | -27.90886 | -30.47482 | 31234 ft | 501 kts | 103° |
| 2026-05-07 15:23 | -27.92365 | -30.39842 | 31234 ft | 501 kts | 103° |
| 2026-05-07 15:23 | -27.93847 | -30.32158 | 31233 ft | 500 kts | 103° |
| 2026-05-07 15:24 | -27.95323 | -30.24483 | 31232 ft | 499 kts | 103° |
| 2026-05-07 15:24 | -27.96793 | -30.16817 | 31233 ft | 498 kts | 103° |
| 2026-05-07 15:25 | -27.98255 | -30.09164 | 31238 ft | 498 kts | 103° |
| 2026-05-07 15:25 | -27.99705 | -30.01557 | 31233 ft | 498 kts | 103° |
| 2026-05-07 15:26 | -28.01224 | -29.93920 | 31230 ft | 497 kts | 104° |
| 2026-05-07 15:26 | -28.02838 | -29.86313 | 31231 ft | 497 kts | 104° |
| 2026-05-07 15:27 | -28.04451 | -29.78704 | 31236 ft | 497 kts | 104° |
| 2026-05-07 15:27 | -28.06032 | -29.71143 | 31236 ft | 497 kts | 104° |
| 2026-05-07 15:28 | -28.07615 | -29.63508 | 31234 ft | 498 kts | 104° |
| 2026-05-07 15:28 | -28.09190 | -29.55884 | 31237 ft | 498 kts | 104° |
| 2026-05-07 15:29 | -28.10765 | -29.48247 | 31233 ft | 498 kts | 104° |
| 2026-05-07 15:29 | -28.12325 | -29.40654 | 31236 ft | 498 kts | 104° |
| 2026-05-07 15:30 | -28.13893 | -29.33005 | 31241 ft | 498 kts | 104° |
| 2026-05-07 15:30 | -28.15455 | -29.25360 | 31239 ft | 499 kts | 104° |
| 2026-05-07 15:31 | -28.17016 | -29.17701 | 31242 ft | 499 kts | 104° |
| 2026-05-07 15:31 | -28.18573 | -29.10034 | 31234 ft | 499 kts | 104° |
| 2026-05-07 15:32 | -28.20117 | -29.02410 | 31239 ft | 500 kts | 104° |
| 2026-05-07 15:32 | -28.21669 | -28.94724 | 31243 ft | 500 kts | 104° |
| 2026-05-07 15:33 | -28.23218 | -28.87027 | 31239 ft | 501 kts | 104° |
| 2026-05-07 15:33 | -28.24763 | -28.79324 | 31238 ft | 501 kts | 104° |
| 2026-05-07 15:34 | -28.26293 | -28.71677 | 31240 ft | 501 kts | 104° |
| 2026-05-07 15:34 | -28.27830 | -28.63968 | 31242 ft | 501 kts | 104° |
| 2026-05-07 15:35 | -28.29363 | -28.56259 | 31237 ft | 501 kts | 104° |
| 2026-05-07 15:35 | -28.30880 | -28.48601 | 31238 ft | 501 kts | 104° |
| 2026-05-07 15:36 | -28.32403 | -28.40893 | 31237 ft | 500 kts | 104° |
| 2026-05-07 15:36 | -28.33921 | -28.33185 | 31242 ft | 500 kts | 104° |
| 2026-05-07 15:37 | -28.35433 | -28.25485 | 31240 ft | 500 kts | 104° |
| 2026-05-07 15:37 | -28.36942 | -28.17774 | 31237 ft | 500 kts | 104° |
| 2026-05-07 15:38 | -28.38437 | -28.10113 | 31240 ft | 500 kts | 104° |
| 2026-05-07 15:38 | -28.39936 | -28.02401 | 31246 ft | 500 kts | 104° |
| 2026-05-07 15:39 | -28.41432 | -27.94687 | 31240 ft | 500 kts | 104° |
| 2026-05-07 15:39 | -28.42922 | -27.86974 | 31240 ft | 500 kts | 104° |
| 2026-05-07 15:40 | -28.44396 | -27.79322 | 31239 ft | 499 kts | 104° |
| 2026-05-07 15:40 | -28.45878 | -27.71603 | 31247 ft | 499 kts | 104° |
| 2026-05-07 15:41 | -28.47104 | -27.65200 | 31237 ft | 499 kts | 104° |
| 2026-05-07 15:41 | -28.48575 | -27.57491 | 31235 ft | 499 kts | 104° |
| 2026-05-07 15:42 | -28.50285 | -27.48536 | 31241 ft | 499 kts | 104° |
| 2026-05-07 15:42 | -28.51868 | -27.40864 | 31241 ft | 498 kts | 105° |
| 2026-05-07 15:43 | -28.53224 | -27.34506 | 31242 ft | 498 kts | 105° |
| 2026-05-07 15:43 | -28.54844 | -27.26844 | 31246 ft | 498 kts | 105° |
| 2026-05-07 15:44 | -28.56445 | -27.19175 | 31242 ft | 498 kts | 105° |
| 2026-05-07 15:44 | -28.58291 | -27.10259 | 31242 ft | 498 kts | 105° |
| 2026-05-07 15:45 | -28.59609 | -27.03876 | 31240 ft | 498 kts | 105° |
| 2026-05-07 15:45 | -28.61189 | -26.96209 | 31240 ft | 498 kts | 105° |
| 2026-05-07 15:46 | -28.63808 | -26.83450 | 31247 ft | 498 kts | 105° |
| 2026-05-07 15:47 | -28.65125 | -26.77011 | 31241 ft | 498 kts | 105° |
| 2026-05-07 15:47 | -28.66682 | -26.69377 | 31243 ft | 498 kts | 105° |
| 2026-05-07 15:48 | -28.68245 | -26.61688 | 31241 ft | 498 kts | 105° |
| 2026-05-07 15:48 | -28.69802 | -26.54004 | 31253 ft | 499 kts | 105° |
| 2026-05-07 15:49 | -28.71358 | -26.46301 | 31242 ft | 499 kts | 105° |
| 2026-05-07 15:49 | -28.72912 | -26.38589 | 31243 ft | 500 kts | 105° |
| 2026-05-07 15:50 | -28.74451 | -26.30921 | 31242 ft | 500 kts | 105° |
| 2026-05-07 15:50 | -28.75997 | -26.23196 | 31243 ft | 501 kts | 106° |
| 2026-05-07 15:51 | -28.77543 | -26.15449 | 31242 ft | 502 kts | 106° |
| 2026-05-07 15:51 | -28.79089 | -26.07681 | 31242 ft | 503 kts | 105° |
| 2026-05-07 15:52 | -28.80620 | -25.99956 | 31240 ft | 504 kts | 105° |
| 2026-05-07 15:52 | -28.82161 | -25.92157 | 31248 ft | 505 kts | 106° |
| 2026-05-07 15:53 | -28.83702 | -25.84337 | 31247 ft | 506 kts | 106° |
| 2026-05-07 15:53 | -28.85242 | -25.76498 | 31245 ft | 507 kts | 106° |
| 2026-05-07 15:54 | -28.86768 | -25.68700 | 31241 ft | 507 kts | 105° |
| 2026-05-07 15:54 | -28.88299 | -25.60851 | 31249 ft | 508 kts | 106° |
| 2026-05-07 15:55 | -28.89830 | -25.52979 | 31245 ft | 508 kts | 106° |
| 2026-05-07 15:55 | -28.91358 | -25.45097 | 31248 ft | 509 kts | 105° |
| 2026-05-07 15:56 | -28.92871 | -25.37261 | 31242 ft | 509 kts | 105° |
| 2026-05-07 15:56 | -28.94391 | -25.29368 | 31246 ft | 509 kts | 105° |
| 2026-05-07 15:57 | -28.95906 | -25.21474 | 31247 ft | 509 kts | 105° |
| 2026-05-07 15:57 | -28.97415 | -25.13578 | 31244 ft | 509 kts | 105° |
| 2026-05-07 15:58 | -28.98909 | -25.05745 | 31244 ft | 509 kts | 105° |
| 2026-05-07 15:58 | -29.00079 | -24.97764 | 31247 ft | 512 kts | 97° |
| 2026-05-07 15:59 | -29.00180 | -24.89598 | 31249 ft | 515 kts | 93° |
| 2026-05-07 15:59 | -29.00181 | -24.81414 | 31238 ft | 515 kts | 93° |
| 2026-05-07 16:00 | -29.00214 | -24.73280 | 31246 ft | 516 kts | 93° |
| 2026-05-07 16:00 | -29.00269 | -24.65086 | 31249 ft | 516 kts | 93° |
| 2026-05-07 16:01 | -29.00325 | -24.56882 | 31248 ft | 517 kts | 93° |
| 2026-05-07 16:01 | -29.00375 | -24.48682 | 31245 ft | 517 kts | 93° |
| 2026-05-07 16:02 | -29.00417 | -24.40470 | 31245 ft | 517 kts | 93° |
| 2026-05-07 16:02 | -29.00454 | -24.32311 | 31247 ft | 517 kts | 93° |
| 2026-05-07 16:03 | -29.00487 | -24.24088 | 31242 ft | 518 kts | 93° |
| 2026-05-07 16:03 | -29.00514 | -24.15863 | 31245 ft | 518 kts | 93° |
| 2026-05-07 16:04 | -29.00536 | -24.07688 | 31245 ft | 518 kts | 93° |
| 2026-05-07 16:04 | -29.00554 | -23.99460 | 31247 ft | 519 kts | 93° |
| 2026-05-07 16:05 | -29.00567 | -23.91211 | 31248 ft | 520 kts | 93° |
| 2026-05-07 16:05 | -29.00574 | -23.82954 | 31248 ft | 520 kts | 93° |
| 2026-05-07 16:06 | -29.00576 | -23.74692 | 31249 ft | 520 kts | 93° |
| 2026-05-07 16:06 | -29.00574 | -23.66475 | 31244 ft | 521 kts | 92° |
| 2026-05-07 16:07 | -29.00566 | -23.58203 | 31245 ft | 521 kts | 92° |
| 2026-05-07 16:07 | -29.00553 | -23.49906 | 31246 ft | 522 kts | 92° |
| 2026-05-07 16:08 | -29.00535 | -23.41623 | 31254 ft | 522 kts | 92° |
| 2026-05-07 16:08 | -29.00513 | -23.33374 | 31249 ft | 523 kts | 92° |
| 2026-05-07 16:09 | -29.00485 | -23.25061 | 31236 ft | 524 kts | 92° |
| 2026-05-07 16:09 | -29.00451 | -23.16741 | 31246 ft | 524 kts | 92° |
| 2026-05-07 16:10 | -29.00413 | -23.08416 | 31263 ft | 524 kts | 92° |
| 2026-05-07 16:10 | -29.00370 | -23.00142 | 31256 ft | 524 kts | 92° |
| 2026-05-07 16:11 | -29.00321 | -22.91817 | 31243 ft | 525 kts | 92° |
| 2026-05-07 16:11 | -29.00267 | -22.83482 | 31244 ft | 525 kts | 92° |
| 2026-05-07 16:12 | -29.00209 | -22.75147 | 31253 ft | 525 kts | 91° |
| 2026-05-07 16:12 | -29.00145 | -22.66809 | 31248 ft | 525 kts | 91° |
| 2026-05-07 16:13 | -29.00076 | -22.58525 | 31244 ft | 525 kts | 91° |
| 2026-05-07 16:13 | -29.00002 | -22.50187 | 31238 ft | 525 kts | 91° |
| 2026-05-07 16:14 | -29.00018 | -22.41867 | 31259 ft | 524 kts | 92° |
| 2026-05-07 16:14 | -29.00115 | -22.33534 | 31251 ft | 525 kts | 92° |
| 2026-05-07 16:15 | -29.00203 | -22.25250 | 31242 ft | 525 kts | 92° |
| 2026-05-07 16:15 | -29.00268 | -22.16902 | 31252 ft | 526 kts | 92° |
| 2026-05-07 16:16 | -29.00321 | -22.08548 | 31245 ft | 526 kts | 92° |
| 2026-05-07 16:16 | -29.00368 | -22.00189 | 31257 ft | 526 kts | 92° |
| 2026-05-07 16:17 | -29.00412 | -21.91829 | 31251 ft | 526 kts | 92° |
| 2026-05-07 16:17 | -29.00450 | -21.83536 | 31246 ft | 526 kts | 91° |
| 2026-05-07 16:18 | -29.00484 | -21.75181 | 31247 ft | 526 kts | 91° |
| 2026-05-07 16:18 | -29.00512 | -21.66833 | 31251 ft | 525 kts | 91° |
| 2026-05-07 16:19 | -29.00535 | -21.58497 | 31245 ft | 524 kts | 91° |
| 2026-05-07 16:19 | -29.00553 | -21.50234 | 31260 ft | 524 kts | 91° |
| 2026-05-07 16:20 | -29.00566 | -21.41912 | 31253 ft | 524 kts | 91° |
| 2026-05-07 16:20 | -29.00574 | -21.33591 | 31255 ft | 524 kts | 91° |
| 2026-05-07 16:21 | -29.00577 | -21.25269 | 31249 ft | 524 kts | 91° |
| 2026-05-07 16:21 | -29.00575 | -21.17002 | 31251 ft | 524 kts | 91° |
| 2026-05-07 16:22 | -29.00567 | -21.08681 | 31247 ft | 524 kts | 91° |
| 2026-05-07 16:22 | -29.00554 | -21.00365 | 31253 ft | 523 kts | 91° |
| 2026-05-07 16:23 | -29.00537 | -20.92059 | 31245 ft | 523 kts | 91° |
| 2026-05-07 16:23 | -29.00514 | -20.83817 | 31245 ft | 522 kts | 91° |
| 2026-05-07 16:24 | -29.00487 | -20.75552 | 31259 ft | 520 kts | 91° |
| 2026-05-07 16:24 | -29.00454 | -20.67295 | 31251 ft | 519 kts | 91° |
| 2026-05-07 16:25 | -29.00416 | -20.59053 | 31242 ft | 518 kts | 90° |
| 2026-05-07 16:25 | -29.00373 | -20.50830 | 31254 ft | 518 kts | 90° |
| 2026-05-07 16:26 | -29.00327 | -20.42662 | 31254 ft | 518 kts | 90° |
| 2026-05-07 16:26 | -29.00274 | -20.34424 | 31252 ft | 519 kts | 90° |
| 2026-05-07 16:27 | -29.00216 | -20.26172 | 31260 ft | 520 kts | 90° |
| 2026-05-07 16:27 | -29.00153 | -20.17908 | 31258 ft | 520 kts | 90° |
| 2026-05-07 16:28 | -29.00086 | -20.09634 | 31254 ft | 521 kts | 90° |
| 2026-05-07 16:28 | -29.00013 | -20.01402 | 31258 ft | 522 kts | 89° |
| 2026-05-07 16:29 | -29.00007 | -19.93100 | 31255 ft | 523 kts | 91° |
| 2026-05-07 16:29 | -29.00100 | -19.84786 | 31260 ft | 523 kts | 91° |
| 2026-05-07 16:30 | -29.00192 | -19.76473 | 31256 ft | 524 kts | 90° |
| 2026-05-07 16:30 | -29.00260 | -19.68135 | 31258 ft | 524 kts | 90° |
| 2026-05-07 16:31 | -29.00313 | -19.59865 | 31260 ft | 525 kts | 90° |
| 2026-05-07 16:31 | -29.00361 | -19.51521 | 31254 ft | 525 kts | 90° |
| 2026-05-07 16:32 | -29.00405 | -19.43190 | 31257 ft | 526 kts | 90° |
| 2026-05-07 16:32 | -29.00445 | -19.34858 | 31260 ft | 526 kts | 90° |
| 2026-05-07 16:33 | -29.00479 | -19.26495 | 31260 ft | 527 kts | 90° |
| 2026-05-07 16:33 | -29.00508 | -19.18123 | 31259 ft | 527 kts | 90° |
| 2026-05-07 16:34 | -29.00533 | -19.09810 | 31265 ft | 528 kts | 89° |
| 2026-05-07 16:34 | -29.00552 | -19.01426 | 31252 ft | 528 kts | 89° |
| 2026-05-07 16:35 | -29.00565 | -18.93036 | 31261 ft | 528 kts | 89° |
| 2026-05-07 16:35 | -29.00574 | -18.84638 | 31267 ft | 529 kts | 89° |
| 2026-05-07 16:36 | -29.00577 | -18.76244 | 31262 ft | 529 kts | 89° |
| 2026-05-07 16:36 | -29.00575 | -18.67894 | 31264 ft | 529 kts | 89° |
| 2026-05-07 16:37 | -29.00568 | -18.59491 | 31253 ft | 529 kts | 89° |
| 2026-05-07 16:37 | -29.00556 | -18.51091 | 31265 ft | 529 kts | 89° |
| 2026-05-07 16:38 | -29.00539 | -18.42695 | 31259 ft | 528 kts | 89° |
| 2026-05-07 16:38 | -29.00516 | -18.34364 | 31267 ft | 528 kts | 89° |
| 2026-05-07 16:39 | -29.00488 | -18.25968 | 31267 ft | 528 kts | 89° |
| 2026-05-07 16:39 | -29.00455 | -18.17572 | 31270 ft | 529 kts | 89° |
| 2026-05-07 16:40 | -29.00417 | -18.09174 | 31262 ft | 529 kts | 89° |
| 2026-05-07 16:40 | -29.00374 | -18.00827 | 31269 ft | 529 kts | 89° |
| 2026-05-07 16:41 | -29.00325 | -17.92417 | 31265 ft | 529 kts | 89° |
| 2026-05-07 16:41 | -29.00271 | -17.84003 | 31266 ft | 530 kts | 89° |
| 2026-05-07 16:42 | -29.00212 | -17.75595 | 31262 ft | 530 kts | 89° |
| 2026-05-07 16:42 | -29.00148 | -17.67233 | 31260 ft | 530 kts | 89° |
| 2026-05-07 16:43 | -29.00078 | -17.58814 | 31270 ft | 530 kts | 88° |
| 2026-05-07 16:43 | -29.00004 | -17.50393 | 31270 ft | 530 kts | 88° |
| 2026-05-07 16:44 | -29.00016 | -17.41970 | 31271 ft | 530 kts | 90° |
| 2026-05-07 16:44 | -29.00114 | -17.33546 | 31264 ft | 530 kts | 90° |
| 2026-05-07 16:45 | -29.00203 | -17.25185 | 31269 ft | 530 kts | 90° |
| 2026-05-07 16:45 | -29.00270 | -17.16758 | 31269 ft | 530 kts | 89° |
| 2026-05-07 16:46 | -29.00323 | -17.08331 | 31256 ft | 530 kts | 89° |
| 2026-05-07 16:46 | -29.00370 | -16.99909 | 31274 ft | 530 kts | 89° |
| 2026-05-07 16:47 | -29.00413 | -16.91553 | 31270 ft | 529 kts | 89° |
| 2026-05-07 16:47 | -29.00452 | -16.83148 | 31265 ft | 529 kts | 89° |
| 2026-05-07 16:48 | -29.00486 | -16.74757 | 31272 ft | 529 kts | 89° |
| 2026-05-07 16:48 | -29.00514 | -16.66361 | 31285 ft | 528 kts | 89° |
| 2026-05-07 16:49 | -29.00537 | -16.58023 | 31269 ft | 528 kts | 89° |
| 2026-05-07 16:49 | -29.00555 | -16.49633 | 31270 ft | 528 kts | 89° |
| 2026-05-07 16:50 | -29.00567 | -16.41243 | 31271 ft | 528 kts | 89° |
| 2026-05-07 16:50 | -29.00575 | -16.32854 | 31279 ft | 528 kts | 89° |
| 2026-05-07 16:51 | -29.00577 | -16.24529 | 31271 ft | 528 kts | 89° |
| 2026-05-07 16:51 | -29.00574 | -16.16138 | 31275 ft | 528 kts | 89° |
| 2026-05-07 16:52 | -29.00566 | -16.07748 | 31269 ft | 528 kts | 89° |
| 2026-05-07 16:52 | -29.00553 | -15.99360 | 31288 ft | 528 kts | 89° |
| 2026-05-07 16:53 | -29.00534 | -15.90968 | 31273 ft | 528 kts | 89° |
| 2026-05-07 16:53 | -29.00511 | -15.82627 | 31272 ft | 529 kts | 89° |
| 2026-05-07 16:54 | -29.00482 | -15.74236 | 31277 ft | 529 kts | 89° |
| 2026-05-07 16:54 | -29.00448 | -15.65832 | 31278 ft | 529 kts | 89° |
| 2026-05-07 16:55 | -29.00408 | -15.57425 | 31280 ft | 529 kts | 89° |
| 2026-05-07 16:55 | -29.00364 | -15.49015 | 31276 ft | 529 kts | 89° |
| 2026-05-07 16:56 | -29.00314 | -15.40660 | 31284 ft | 529 kts | 89° |
| 2026-05-07 16:56 | -29.00229 | -15.28043 | 31284 ft | 529 kts | 89° |
| 2026-05-07 16:57 | -29.00167 | -15.19641 | 31284 ft | 529 kts | 89° |
| 2026-05-07 16:57 | -29.00099 | -15.11231 | 31284 ft | 529 kts | 89° |
| 2026-05-07 16:58 | -29.00027 | -15.02877 | 31283 ft | 529 kts | 89° |
| 2026-05-07 16:58 | -28.99996 | -14.94469 | 31285 ft | 529 kts | 90° |
| 2026-05-07 16:59 | -29.00083 | -14.86058 | 31282 ft | 529 kts | 90° |
| 2026-05-07 16:59 | -29.00179 | -14.77703 | 31264 ft | 530 kts | 90° |
| 2026-05-07 17:00 | -29.00252 | -14.69286 | 31274 ft | 530 kts | 89° |
| 2026-05-07 17:00 | -29.00307 | -14.60862 | 31292 ft | 531 kts | 89° |
| 2026-05-07 17:01 | -29.00356 | -14.52436 | 31280 ft | 531 kts | 89° |
| 2026-05-07 17:01 | -29.00400 | -14.44044 | 31279 ft | 532 kts | 89° |
| 2026-05-07 17:02 | -29.00441 | -14.35587 | 31288 ft | 532 kts | 89° |
| 2026-05-07 17:02 | -29.00476 | -14.27128 | 31287 ft | 532 kts | 89° |
| 2026-05-07 17:03 | -29.00507 | -14.18669 | 31281 ft | 532 kts | 89° |
| 2026-05-07 17:03 | -29.00531 | -14.10210 | 31282 ft | 532 kts | 89° |
| 2026-05-07 17:04 | -29.00551 | -14.01817 | 31280 ft | 532 kts | 89° |
| 2026-05-07 17:04 | -29.00565 | -13.93361 | 31280 ft | 532 kts | 89° |
| 2026-05-07 17:05 | -29.00574 | -13.84906 | 31294 ft | 532 kts | 89° |
| 2026-05-07 17:05 | -29.00577 | -13.76448 | 31285 ft | 532 kts | 89° |
| 2026-05-07 17:06 | -29.00575 | -13.68044 | 31288 ft | 533 kts | 89° |
| 2026-05-07 17:06 | -29.00568 | -13.59591 | 31277 ft | 533 kts | 89° |
| 2026-05-07 17:07 | -29.00556 | -13.51130 | 31293 ft | 533 kts | 89° |
| 2026-05-07 17:07 | -29.00538 | -13.42665 | 31276 ft | 533 kts | 89° |
| 2026-05-07 17:08 | -29.00516 | -13.34248 | 31295 ft | 534 kts | 89° |
| 2026-05-07 17:08 | -29.00487 | -13.25764 | 31293 ft | 534 kts | 89° |
| 2026-05-07 17:09 | -29.00454 | -13.17272 | 31291 ft | 535 kts | 89° |
| 2026-05-07 17:09 | -29.00415 | -13.08774 | 31292 ft | 535 kts | 89° |
| 2026-05-07 17:10 | -29.00371 | -13.00336 | 31294 ft | 535 kts | 89° |
| 2026-05-07 17:10 | -29.00321 | -12.91828 | 31283 ft | 536 kts | 89° |
| 2026-05-07 17:11 | -29.00266 | -12.83319 | 31296 ft | 536 kts | 89° |
| 2026-05-07 17:11 | -29.00206 | -12.74809 | 31282 ft | 536 kts | 88° |
| 2026-05-07 17:12 | -29.00141 | -12.66349 | 31287 ft | 536 kts | 88° |
| 2026-05-07 17:12 | -29.00070 | -12.57826 | 31291 ft | 537 kts | 88° |
| 2026-05-07 17:13 | -28.99995 | -12.49305 | 31290 ft | 537 kts | 89° |
| 2026-05-07 17:13 | -29.00026 | -12.40769 | 31295 ft | 537 kts | 90° |
| 2026-05-07 17:14 | -29.00127 | -12.32281 | 31292 ft | 538 kts | 90° |
| 2026-05-07 17:14 | -29.00216 | -12.23728 | 31293 ft | 539 kts | 90° |
| 2026-05-07 17:15 | -29.00281 | -12.15169 | 31292 ft | 539 kts | 89° |
| 2026-05-07 17:15 | -29.00333 | -12.06605 | 31287 ft | 539 kts | 89° |
| 2026-05-07 17:16 | -29.00380 | -11.98094 | 31297 ft | 540 kts | 89° |
| 2026-05-07 17:16 | -29.00423 | -11.89523 | 31272 ft | 541 kts | 89° |
| 2026-05-07 17:17 | -29.00461 | -11.80909 | 31301 ft | 544 kts | 89° |
| 2026-05-07 17:17 | -29.00494 | -11.72249 | 31298 ft | 546 kts | 89° |
| 2026-05-07 17:18 | -29.00522 | -11.63614 | 31300 ft | 548 kts | 89° |
| 2026-05-07 17:18 | -29.00544 | -11.54909 | 31292 ft | 548 kts | 89° |
| 2026-05-07 17:19 | -29.00561 | -11.46211 | 31285 ft | 547 kts | 89° |
| 2026-05-07 17:19 | -29.00572 | -11.37540 | 31301 ft | 546 kts | 89° |
| 2026-05-07 17:20 | -29.00577 | -11.28876 | 31287 ft | 545 kts | 89° |
| 2026-05-07 17:20 | -29.00577 | -11.20279 | 31290 ft | 544 kts | 89° |
| 2026-05-07 17:21 | -29.00571 | -11.11629 | 31295 ft | 544 kts | 89° |
| 2026-05-07 17:21 | -29.00559 | -11.02979 | 31294 ft | 544 kts | 89° |
| 2026-05-07 17:22 | -29.00542 | -10.94325 | 31291 ft | 545 kts | 89° |
| 2026-05-07 17:22 | -29.00520 | -10.85714 | 31304 ft | 546 kts | 89° |
| 2026-05-07 17:23 | -29.00492 | -10.77036 | 31287 ft | 547 kts | 88° |
| 2026-05-07 17:23 | -29.00458 | -10.68331 | 31301 ft | 548 kts | 88° |
| 2026-05-07 17:24 | -29.00419 | -10.59615 | 31290 ft | 549 kts | 88° |
| 2026-05-07 17:24 | -29.00374 | -10.50951 | 31303 ft | 549 kts | 88° |
| 2026-05-07 17:25 | -29.00324 | -10.42224 | 31293 ft | 549 kts | 88° |
| 2026-05-07 17:25 | -29.00268 | -10.33496 | 31306 ft | 549 kts | 88° |
| 2026-05-07 17:26 | -29.00206 | -10.24769 | 31294 ft | 549 kts | 88° |
| 2026-05-07 17:26 | -29.00138 | -10.16054 | 31292 ft | 549 kts | 88° |
| 2026-05-07 17:27 | -29.00067 | -10.07384 | 31297 ft | 549 kts | 88° |
| 2026-05-07 17:27 | -28.99754 | -9.98673 | 31300 ft | 548 kts | 81° |
| 2026-05-07 17:28 | -28.98330 | -9.90153 | 31312 ft | 546 kts | 75° |
| 2026-05-07 17:28 | -28.96715 | -9.81685 | 31302 ft | 547 kts | 75° |
| 2026-05-07 17:29 | -28.95145 | -9.73246 | 31289 ft | 547 kts | 76° |
| 2026-05-07 17:29 | -28.93592 | -9.64735 | 31313 ft | 548 kts | 76° |
| 2026-05-07 17:30 | -28.92040 | -9.56219 | 31299 ft | 548 kts | 76° |
| 2026-05-07 17:30 | -28.90479 | -9.47705 | 31295 ft | 548 kts | 76° |
| 2026-05-07 17:31 | -28.88920 | -9.39247 | 31305 ft | 548 kts | 76° |
| 2026-05-07 17:31 | -28.87343 | -9.30727 | 31302 ft | 549 kts | 75° |
| 2026-05-07 17:32 | -28.85761 | -9.22213 | 31302 ft | 549 kts | 75° |
| 2026-05-07 17:32 | -28.84440 | -9.15126 | 31303 ft | 549 kts | 75° |
| 2026-05-07 17:33 | -28.82588 | -9.05224 | 31300 ft | 549 kts | 75° |
| 2026-05-07 17:33 | -28.80988 | -8.96703 | 31306 ft | 549 kts | 75° |
| 2026-05-07 17:34 | -28.79382 | -8.88183 | 31303 ft | 550 kts | 75° |
| 2026-05-07 17:34 | -28.77771 | -8.79664 | 31305 ft | 550 kts | 75° |
| 2026-05-07 17:35 | -28.76154 | -8.71146 | 31307 ft | 550 kts | 75° |
| 2026-05-07 17:35 | -28.74543 | -8.62695 | 31308 ft | 550 kts | 75° |
| 2026-05-07 17:36 | -28.72915 | -8.54181 | 31308 ft | 550 kts | 75° |
| 2026-05-07 17:36 | -28.71281 | -8.45667 | 31307 ft | 550 kts | 75° |
| 2026-05-07 17:37 | -28.69643 | -8.37157 | 31280 ft | 550 kts | 75° |
| 2026-05-07 17:37 | -28.68008 | -8.28703 | 31304 ft | 551 kts | 75° |
| 2026-05-07 17:38 | -28.66357 | -8.20190 | 31307 ft | 552 kts | 75° |
| 2026-05-07 17:38 | -28.64696 | -8.11655 | 31306 ft | 553 kts | 75° |
| 2026-05-07 17:39 | -28.63027 | -8.03111 | 31307 ft | 553 kts | 75° |
| 2026-05-07 17:39 | -28.61363 | -7.94621 | 31307 ft | 553 kts | 75° |
| 2026-05-07 17:40 | -28.59682 | -7.86077 | 31306 ft | 553 kts | 75° |
| 2026-05-07 17:40 | -28.57997 | -7.77541 | 31307 ft | 553 kts | 75° |
| 2026-05-07 17:41 | -28.56310 | -7.69023 | 31304 ft | 552 kts | 75° |
| 2026-05-07 17:41 | -28.54626 | -7.60552 | 31305 ft | 552 kts | 75° |
| 2026-05-07 17:42 | -28.52930 | -7.52048 | 31299 ft | 552 kts | 75° |
| 2026-05-07 17:42 | -28.51226 | -7.43536 | 31304 ft | 552 kts | 75° |
| 2026-05-07 17:43 | -28.49516 | -7.35023 | 31304 ft | 552 kts | 75° |
| 2026-05-07 17:43 | -28.47800 | -7.26507 | 31305 ft | 553 kts | 74° |
| 2026-05-07 17:44 | -28.46089 | -7.18047 | 31296 ft | 553 kts | 74° |
| 2026-05-07 17:44 | -28.44362 | -7.09535 | 31306 ft | 554 kts | 74° |
| 2026-05-07 17:45 | -28.42625 | -7.01003 | 31303 ft | 555 kts | 74° |
| 2026-05-07 17:45 | -28.40881 | -6.92464 | 31302 ft | 555 kts | 74° |
| 2026-05-07 17:46 | -28.39130 | -6.83922 | 31304 ft | 555 kts | 74° |
| 2026-05-07 17:46 | -28.37386 | -6.75440 | 31302 ft | 555 kts | 74° |
| 2026-05-07 17:47 | -28.35625 | -6.66904 | 31303 ft | 555 kts | 74° |
| 2026-05-07 17:47 | -28.33861 | -6.58385 | 31305 ft | 555 kts | 74° |
| 2026-05-07 17:48 | -28.32091 | -6.49863 | 31303 ft | 555 kts | 74° |
| 2026-05-07 17:48 | -28.30316 | -6.41348 | 31305 ft | 554 kts | 74° |
| 2026-05-07 17:49 | -28.28548 | -6.32894 | 31302 ft | 554 kts | 74° |
| 2026-05-07 17:49 | -28.26764 | -6.24388 | 31299 ft | 554 kts | 74° |
| 2026-05-07 17:50 | -28.24974 | -6.15885 | 31301 ft | 554 kts | 74° |
| 2026-05-07 17:50 | -28.23179 | -6.07384 | 31300 ft | 554 kts | 74° |
| 2026-05-07 17:51 | -28.21390 | -5.98943 | 31305 ft | 554 kts | 74° |
| 2026-05-07 17:51 | -28.19587 | -5.90457 | 31305 ft | 554 kts | 74° |
| 2026-05-07 17:52 | -28.17776 | -5.81965 | 31301 ft | 554 kts | 74° |
| 2026-05-07 17:52 | -28.15960 | -5.73477 | 31303 ft | 554 kts | 74° |
| 2026-05-07 17:53 | -28.14151 | -5.65048 | 31299 ft | 554 kts | 74° |
| 2026-05-07 17:53 | -28.12327 | -5.56575 | 31299 ft | 554 kts | 74° |
| 2026-05-07 17:54 | -28.10496 | -5.48097 | 31301 ft | 554 kts | 74° |
| 2026-05-07 17:54 | -28.08660 | -5.39621 | 31302 ft | 554 kts | 74° |
| 2026-05-07 17:55 | -28.06831 | -5.31206 | 31301 ft | 554 kts | 74° |
| 2026-05-07 17:55 | -28.04985 | -5.22740 | 31306 ft | 554 kts | 74° |
| 2026-05-07 17:56 | -28.03134 | -5.14277 | 31304 ft | 554 kts | 73° |
| 2026-05-07 17:56 | -28.01279 | -5.05817 | 31305 ft | 554 kts | 73° |
| 2026-05-07 17:57 | -27.99737 | -4.98794 | 31304 ft | 554 kts | 74° |
| 2026-05-07 17:57 | -27.97863 | -4.88875 | 31290 ft | 554 kts | 77° |
| 2026-05-07 17:58 | -27.96391 | -4.80324 | 31303 ft | 554 kts | 77° |
| 2026-05-07 17:58 | -27.94880 | -4.71772 | 31305 ft | 555 kts | 76° |
| 2026-05-07 17:59 | -27.93324 | -4.63227 | 31305 ft | 555 kts | 76° |
| 2026-05-07 17:59 | -27.91759 | -4.54741 | 31308 ft | 555 kts | 76° |
| 2026-05-07 18:00 | -27.90181 | -4.46199 | 31306 ft | 555 kts | 76° |
| 2026-05-07 18:00 | -27.88601 | -4.37658 | 31308 ft | 555 kts | 76° |
| 2026-05-07 18:01 | -27.87019 | -4.29129 | 31304 ft | 555 kts | 76° |
| 2026-05-07 18:01 | -27.85430 | -4.20594 | 31305 ft | 555 kts | 76° |
| 2026-05-07 18:02 | -27.83047 | -4.07856 | 31301 ft | 555 kts | 76° |
| 2026-05-07 18:03 | -27.81445 | -3.99332 | 31302 ft | 555 kts | 76° |
| 2026-05-07 18:03 | -27.79839 | -3.90811 | 31302 ft | 555 kts | 76° |
| 2026-05-07 18:04 | -27.78238 | -3.82351 | 31309 ft | 554 kts | 76° |
| 2026-05-07 18:04 | -27.76623 | -3.73848 | 31301 ft | 554 kts | 76° |
| 2026-05-07 18:05 | -27.75002 | -3.65341 | 31302 ft | 554 kts | 76° |
| 2026-05-07 18:05 | -27.73376 | -3.56839 | 31301 ft | 554 kts | 76° |
| 2026-05-07 18:06 | -27.71756 | -3.48400 | 31299 ft | 554 kts | 76° |
| 2026-05-07 18:06 | -27.70121 | -3.39909 | 31303 ft | 554 kts | 76° |
| 2026-05-07 18:07 | -27.68482 | -3.31426 | 31302 ft | 554 kts | 76° |
| 2026-05-07 18:07 | -27.66835 | -3.22934 | 31295 ft | 554 kts | 76° |
| 2026-05-07 18:08 | -27.65183 | -3.14442 | 31292 ft | 554 kts | 76° |
| 2026-05-07 18:08 | -27.63536 | -3.06008 | 31295 ft | 554 kts | 76° |
| 2026-05-07 18:09 | -27.61873 | -2.97518 | 31297 ft | 554 kts | 76° |
| 2026-05-07 18:09 | -27.60205 | -2.89032 | 31294 ft | 554 kts | 76° |
| 2026-05-07 18:10 | -27.58533 | -2.80553 | 31293 ft | 554 kts | 76° |
| 2026-05-07 18:10 | -27.56866 | -2.72134 | 31296 ft | 554 kts | 76° |
| 2026-05-07 18:11 | -27.55186 | -2.63674 | 31293 ft | 554 kts | 76° |
| 2026-05-07 18:11 | -27.53500 | -2.55209 | 31292 ft | 554 kts | 76° |
| 2026-05-07 18:12 | -27.51808 | -2.46747 | 31296 ft | 554 kts | 76° |
| 2026-05-07 18:12 | -27.50122 | -2.38342 | 31295 ft | 554 kts | 76° |
| 2026-05-07 18:13 | -27.48420 | -2.29882 | 31295 ft | 554 kts | 76° |
| 2026-05-07 18:13 | -27.46712 | -2.21425 | 31295 ft | 554 kts | 76° |
| 2026-05-07 18:14 | -27.45002 | -2.12980 | 31277 ft | 554 kts | 76° |
| 2026-05-07 18:14 | -27.43296 | -2.04588 | 31287 ft | 553 kts | 76° |
| 2026-05-07 18:15 | -27.41574 | -1.96142 | 31289 ft | 554 kts | 76° |
| 2026-05-07 18:15 | -27.39847 | -1.87696 | 31292 ft | 554 kts | 76° |
| 2026-05-07 18:16 | -27.38113 | -1.79252 | 31288 ft | 554 kts | 76° |
| 2026-05-07 18:16 | -27.36377 | -1.70818 | 31287 ft | 554 kts | 75° |
| 2026-05-07 18:17 | -27.34645 | -1.62433 | 31289 ft | 554 kts | 75° |
| 2026-05-07 18:17 | -27.32897 | -1.53995 | 31288 ft | 554 kts | 75° |
| 2026-05-07 18:18 | -27.31143 | -1.45562 | 31291 ft | 554 kts | 75° |
| 2026-05-07 18:18 | -27.29386 | -1.37134 | 31290 ft | 553 kts | 75° |
| 2026-05-07 18:19 | -27.27635 | -1.28768 | 31289 ft | 553 kts | 75° |
| 2026-05-07 18:19 | -27.25869 | -1.20352 | 31288 ft | 553 kts | 75° |
| 2026-05-07 18:20 | -27.24098 | -1.11940 | 31290 ft | 553 kts | 75° |
| 2026-05-07 18:20 | -27.22324 | -1.03542 | 31290 ft | 553 kts | 75° |
| 2026-05-07 18:21 | -27.20544 | -0.95138 | 31284 ft | 553 kts | 75° |
| 2026-05-07 18:21 | -27.18771 | -0.86795 | 31284 ft | 553 kts | 75° |
| 2026-05-07 18:22 | -27.16981 | -0.78400 | 31271 ft | 553 kts | 75° |
| 2026-05-07 18:22 | -27.15188 | -0.70017 | 31282 ft | 553 kts | 75° |
| 2026-05-07 18:23 | -27.13692 | -0.63041 | 31287 ft | 553 kts | 75° |
| 2026-05-07 18:23 | -27.11594 | -0.53291 | 31282 ft | 553 kts | 75° |
| 2026-05-07 18:24 | -27.09782 | -0.44895 | 31282 ft | 553 kts | 75° |
| 2026-05-07 18:24 | -27.08271 | -0.37914 | 31282 ft | 554 kts | 75° |
| 2026-05-07 18:25 | -27.06451 | -0.29528 | 31283 ft | 554 kts | 75° |
| 2026-05-07 18:25 | -27.04624 | -0.21135 | 31282 ft | 554 kts | 75° |
| 2026-05-07 18:26 | -27.02792 | -0.12746 | 31282 ft | 554 kts | 75° |
| 2026-05-07 18:26 | -27.00969 | -0.04415 | 31282 ft | 554 kts | 75° |
| 2026-05-07 18:27 | -26.99171 | 0.03978 | 31279 ft | 554 kts | 77° |
| 2026-05-07 18:27 | -26.97636 | 0.12436 | 31279 ft | 553 kts | 78° |
| 2026-05-07 18:28 | -26.96171 | 0.20896 | 31277 ft | 553 kts | 78° |
| 2026-05-07 18:28 | -26.94672 | 0.29306 | 31279 ft | 553 kts | 78° |
| 2026-05-07 18:29 | -26.93127 | 0.37741 | 31278 ft | 553 kts | 77° |
| 2026-05-07 18:29 | -26.91567 | 0.46181 | 31279 ft | 553 kts | 77° |
| 2026-05-07 18:30 | -26.90005 | 0.54618 | 31279 ft | 553 kts | 77° |
| 2026-05-07 18:30 | -26.88441 | 0.63051 | 31281 ft | 553 kts | 77° |
| 2026-05-07 18:31 | -26.86886 | 0.71416 | 31278 ft | 553 kts | 77° |
| 2026-05-07 18:31 | -26.85314 | 0.79843 | 31279 ft | 553 kts | 77° |
| 2026-05-07 18:32 | -26.83736 | 0.88267 | 31261 ft | 553 kts | 77° |
| 2026-05-07 18:32 | -26.82153 | 0.96691 | 31278 ft | 553 kts | 77° |
| 2026-05-07 18:33 | -26.80565 | 1.05115 | 31263 ft | 553 kts | 77° |
| 2026-05-07 18:33 | -26.78982 | 1.13482 | 31272 ft | 553 kts | 77° |
| 2026-05-07 18:34 | -26.77383 | 1.21902 | 31275 ft | 553 kts | 77° |
| 2026-05-07 18:34 | -26.75781 | 1.30309 | 31265 ft | 553 kts | 77° |
| 2026-05-07 18:35 | -26.74172 | 1.38729 | 31260 ft | 553 kts | 77° |
| 2026-05-07 18:35 | -26.72573 | 1.47070 | 31261 ft | 553 kts | 77° |
| 2026-05-07 18:36 | -26.70956 | 1.55473 | 31260 ft | 553 kts | 77° |
| 2026-05-07 18:36 | -26.69334 | 1.63874 | 31270 ft | 553 kts | 77° |
| 2026-05-07 18:37 | -26.67707 | 1.72273 | 31267 ft | 553 kts | 77° |
| 2026-05-07 18:37 | -26.66085 | 1.80614 | 31263 ft | 553 kts | 77° |
| 2026-05-07 18:38 | -26.64450 | 1.89000 | 31261 ft | 553 kts | 77° |
| 2026-05-07 18:38 | -26.62808 | 1.97393 | 31273 ft | 553 kts | 77° |
| 2026-05-07 18:39 | -26.61162 | 2.05781 | 31270 ft | 552 kts | 77° |
| 2026-05-07 18:39 | -26.59511 | 2.14164 | 31260 ft | 552 kts | 77° |
| 2026-05-07 18:40 | -26.57856 | 2.22543 | 31266 ft | 552 kts | 77° |
| 2026-05-07 18:40 | -26.56208 | 2.30854 | 31260 ft | 552 kts | 77° |
| 2026-05-07 18:41 | -26.54544 | 2.39226 | 31255 ft | 552 kts | 77° |
| 2026-05-07 18:41 | -26.52876 | 2.47588 | 31260 ft | 551 kts | 77° |
| 2026-05-07 18:42 | -26.51204 | 2.55940 | 31259 ft | 551 kts | 77° |
| 2026-05-07 18:42 | -26.49540 | 2.64230 | 31262 ft | 551 kts | 77° |
| 2026-05-07 18:43 | -26.47860 | 2.72570 | 31268 ft | 551 kts | 77° |
| 2026-05-07 18:43 | -26.46176 | 2.80906 | 31261 ft | 551 kts | 77° |
| 2026-05-07 18:44 | -26.44487 | 2.89240 | 31259 ft | 550 kts | 77° |
| 2026-05-07 18:44 | -26.42795 | 2.97563 | 31255 ft | 551 kts | 77° |
| 2026-05-07 18:45 | -26.41107 | 3.05838 | 31264 ft | 551 kts | 77° |
| 2026-05-07 18:45 | -26.39403 | 3.14168 | 31252 ft | 551 kts | 77° |
| 2026-05-07 18:46 | -26.37693 | 3.22497 | 31255 ft | 551 kts | 77° |
| 2026-05-07 18:46 | -26.35979 | 3.30822 | 31258 ft | 551 kts | 77° |
| 2026-05-07 18:47 | -26.34274 | 3.39080 | 31243 ft | 551 kts | 77° |
| 2026-05-07 18:47 | -26.32549 | 3.47408 | 31248 ft | 551 kts | 77° |
| 2026-05-07 18:48 | -26.30823 | 3.55714 | 31253 ft | 551 kts | 77° |
| 2026-05-07 18:48 | -26.29091 | 3.64027 | 31249 ft | 551 kts | 77° |
| 2026-05-07 18:49 | -26.27364 | 3.72284 | 31245 ft | 551 kts | 77° |
| 2026-05-07 18:49 | -26.25622 | 3.80594 | 31255 ft | 551 kts | 77° |
| 2026-05-07 18:50 | -26.23874 | 3.88904 | 31241 ft | 551 kts | 77° |
| 2026-05-07 18:50 | -26.22123 | 3.97203 | 31255 ft | 551 kts | 77° |
| 2026-05-07 18:51 | -26.20377 | 4.05454 | 31258 ft | 551 kts | 77° |
| 2026-05-07 18:51 | -26.18615 | 4.13756 | 31235 ft | 550 kts | 77° |
| 2026-05-07 18:52 | -26.16850 | 4.22048 | 31244 ft | 550 kts | 77° |
| 2026-05-07 18:52 | -26.15080 | 4.30337 | 31233 ft | 550 kts | 77° |
| 2026-05-07 18:53 | -26.13318 | 4.38565 | 31236 ft | 550 kts | 77° |
| 2026-05-07 18:53 | -26.11542 | 4.46834 | 31231 ft | 550 kts | 77° |
| 2026-05-07 18:54 | -26.09760 | 4.55109 | 31233 ft | 550 kts | 77° |
| 2026-05-07 18:54 | -26.07972 | 4.63381 | 31232 ft | 550 kts | 77° |
| 2026-05-07 18:55 | -26.06193 | 4.71596 | 31242 ft | 550 kts | 77° |
| 2026-05-07 18:55 | -26.04396 | 4.79862 | 31231 ft | 550 kts | 77° |
| 2026-05-07 18:56 | -26.02596 | 4.88126 | 31233 ft | 550 kts | 77° |
| 2026-05-07 18:56 | -26.00793 | 4.96377 | 31240 ft | 550 kts | 76° |
| 2026-05-07 18:57 | -25.98461 | 5.04458 | 31229 ft | 549 kts | 66° |
| 2026-05-07 18:57 | -25.95467 | 5.12205 | 31223 ft | 549 kts | 66° |
| 2026-05-07 18:58 | -25.92448 | 5.20003 | 31231 ft | 549 kts | 66° |
| 2026-05-07 18:58 | -25.89465 | 5.27818 | 31230 ft | 550 kts | 66° |
| 2026-05-07 18:59 | -25.86498 | 5.35642 | 31227 ft | 550 kts | 66° |
| 2026-05-07 18:59 | -25.83532 | 5.43455 | 31222 ft | 549 kts | 66° |
| 2026-05-07 19:00 | -25.80576 | 5.51214 | 31225 ft | 549 kts | 66° |
| 2026-05-07 19:00 | -25.77595 | 5.59020 | 31225 ft | 549 kts | 66° |
| 2026-05-07 19:01 | -25.74610 | 5.66822 | 31223 ft | 549 kts | 66° |
| 2026-05-07 19:01 | -25.71620 | 5.74622 | 31229 ft | 550 kts | 66° |
| 2026-05-07 19:02 | -25.68648 | 5.82360 | 31218 ft | 550 kts | 66° |
| 2026-05-07 19:02 | -25.65648 | 5.90155 | 31221 ft | 550 kts | 66° |
| 2026-05-07 19:03 | -25.62645 | 5.97946 | 31213 ft | 550 kts | 66° |
| 2026-05-07 19:03 | -25.59638 | 6.05731 | 31212 ft | 549 kts | 66° |
| 2026-05-07 19:04 | -25.56647 | 6.13462 | 31212 ft | 550 kts | 66° |
| 2026-05-07 19:04 | -25.53631 | 6.21241 | 31209 ft | 550 kts | 66° |
| 2026-05-07 19:05 | -25.50615 | 6.29008 | 31187 ft | 550 kts | 66° |
| 2026-05-07 19:05 | -25.47592 | 6.36775 | 31202 ft | 549 kts | 66° |
| 2026-05-07 19:06 | -25.44569 | 6.44532 | 31207 ft | 549 kts | 66° |
| 2026-05-07 19:06 | -25.40047 | 6.56105 | 31202 ft | 549 kts | 66° |
| 2026-05-07 19:07 | -25.37012 | 6.63852 | 31203 ft | 549 kts | 66° |
| 2026-05-07 19:07 | -25.33974 | 6.71597 | 31200 ft | 549 kts | 66° |
| 2026-05-07 19:08 | -25.30934 | 6.79331 | 31197 ft | 549 kts | 66° |
| 2026-05-07 19:08 | -25.27906 | 6.87020 | 31201 ft | 549 kts | 65° |
| 2026-05-07 19:09 | -25.24853 | 6.94759 | 31200 ft | 550 kts | 65° |
| 2026-05-07 19:09 | -25.21795 | 7.02497 | 31190 ft | 550 kts | 65° |
| 2026-05-07 19:10 | -25.18733 | 7.10230 | 31189 ft | 549 kts | 65° |
| 2026-05-07 19:10 | -25.15692 | 7.17897 | 31189 ft | 549 kts | 65° |
| 2026-05-07 19:11 | -25.12620 | 7.25628 | 31188 ft | 549 kts | 65° |
| 2026-05-07 19:11 | -25.09551 | 7.33336 | 31183 ft | 549 kts | 65° |
| 2026-05-07 19:12 | -25.06475 | 7.41048 | 31182 ft | 549 kts | 65° |
| 2026-05-07 19:12 | -25.03416 | 7.48705 | 31183 ft | 549 kts | 65° |
| 2026-05-07 19:13 | -25.00333 | 7.56409 | 31183 ft | 549 kts | 65° |
| 2026-05-07 19:13 | -24.97245 | 7.64112 | 31179 ft | 549 kts | 65° |
| 2026-05-07 19:14 | -24.94156 | 7.71802 | 31182 ft | 549 kts | 65° |
| 2026-05-07 19:14 | -24.91060 | 7.79496 | 31181 ft | 549 kts | 65° |
| 2026-05-07 19:15 | -24.87980 | 7.87136 | 31181 ft | 549 kts | 65° |
| 2026-05-07 19:15 | -24.84876 | 7.94824 | 31178 ft | 549 kts | 65° |
| 2026-05-07 19:16 | -24.81767 | 8.02509 | 31175 ft | 550 kts | 65° |
| 2026-05-07 19:16 | -24.78653 | 8.10194 | 31155 ft | 549 kts | 65° |
| 2026-05-07 19:17 | -24.75561 | 8.17809 | 31171 ft | 549 kts | 65° |
| 2026-05-07 19:17 | -24.72443 | 8.25478 | 31172 ft | 549 kts | 65° |
| 2026-05-07 19:18 | -24.69320 | 8.33142 | 31168 ft | 549 kts | 65° |
| 2026-05-07 19:18 | -24.66193 | 8.40806 | 31175 ft | 549 kts | 65° |
| 2026-05-07 19:19 | -24.63060 | 8.48469 | 31165 ft | 550 kts | 65° |
| 2026-05-07 19:19 | -24.59947 | 8.56072 | 31157 ft | 550 kts | 65° |
| 2026-05-07 19:20 | -24.56802 | 8.63738 | 31163 ft | 550 kts | 65° |
| 2026-05-07 19:20 | -24.53660 | 8.71384 | 31158 ft | 550 kts | 65° |
| 2026-05-07 19:21 | -24.50511 | 8.79034 | 31156 ft | 550 kts | 65° |
| 2026-05-07 19:21 | -24.47380 | 8.86626 | 31150 ft | 549 kts | 65° |
| 2026-05-07 19:22 | -24.44225 | 8.94265 | 31141 ft | 549 kts | 65° |
| 2026-05-07 19:22 | -24.41068 | 9.01895 | 31135 ft | 549 kts | 64° |
| 2026-05-07 19:23 | -24.37913 | 9.09508 | 31154 ft | 549 kts | 64° |
| 2026-05-07 19:23 | -24.34751 | 9.17125 | 31141 ft | 549 kts | 64° |
| 2026-05-07 19:24 | -24.31603 | 9.24693 | 31139 ft | 549 kts | 64° |
| 2026-05-07 19:24 | -24.28430 | 9.32310 | 31139 ft | 549 kts | 64° |
| 2026-05-07 19:25 | -24.25253 | 9.39924 | 31137 ft | 549 kts | 64° |
| 2026-05-07 19:25 | -24.22071 | 9.47536 | 31137 ft | 549 kts | 64° |
| 2026-05-07 19:26 | -24.18910 | 9.55087 | 31129 ft | 550 kts | 64° |
| 2026-05-07 19:26 | -24.15716 | 9.62704 | 31126 ft | 550 kts | 64° |
| 2026-05-07 19:27 | -24.12525 | 9.70300 | 31126 ft | 550 kts | 64° |
| 2026-05-07 19:27 | -24.09327 | 9.77900 | 31126 ft | 549 kts | 64° |
| 2026-05-07 19:28 | -24.06126 | 9.85494 | 31099 ft | 549 kts | 64° |
| 2026-05-07 19:28 | -24.02947 | 9.93029 | 31110 ft | 549 kts | 64° |
| 2026-05-07 19:29 | -23.99787 | 10.00628 | 31114 ft | 549 kts | 67° |
| 2026-05-07 19:29 | -23.97287 | 10.08510 | 31117 ft | 549 kts | 71° |
| 2026-05-07 19:30 | -23.94915 | 10.16451 | 31111 ft | 550 kts | 71° |
| 2026-05-07 19:30 | -23.92527 | 10.24335 | 31121 ft | 550 kts | 71° |
| 2026-05-07 19:31 | -23.90088 | 10.32260 | 31104 ft | 550 kts | 71° |
| 2026-05-07 19:31 | -23.87636 | 10.40181 | 31103 ft | 550 kts | 71° |
| 2026-05-07 19:32 | -23.85182 | 10.48098 | 31098 ft | 550 kts | 71° |
| 2026-05-07 19:32 | -23.82729 | 10.56003 | 31099 ft | 550 kts | 71° |
| 2026-05-07 19:33 | -23.80287 | 10.63861 | 31100 ft | 550 kts | 71° |
| 2026-05-07 19:33 | -23.77824 | 10.71771 | 31099 ft | 550 kts | 70° |
| 2026-05-07 19:34 | -23.75357 | 10.79676 | 31091 ft | 550 kts | 70° |
| 2026-05-07 19:34 | -23.72889 | 10.87568 | 31085 ft | 550 kts | 70° |
| 2026-05-07 19:35 | -23.70429 | 10.95420 | 31085 ft | 550 kts | 70° |
| 2026-05-07 19:35 | -23.67953 | 11.03304 | 31078 ft | 550 kts | 70° |
| 2026-05-07 19:36 | -23.65472 | 11.11192 | 31069 ft | 549 kts | 70° |
| 2026-05-07 19:36 | -23.62989 | 11.19070 | 31076 ft | 549 kts | 70° |
| 2026-05-07 19:37 | -23.60518 | 11.26891 | 31080 ft | 549 kts | 70° |
| 2026-05-07 19:37 | -23.58030 | 11.34755 | 31076 ft | 549 kts | 70° |
| 2026-05-07 19:38 | -23.55534 | 11.42628 | 31075 ft | 550 kts | 70° |
| 2026-05-07 19:38 | -23.53033 | 11.50500 | 31065 ft | 550 kts | 70° |
| 2026-05-07 19:39 | -23.50528 | 11.58370 | 31068 ft | 550 kts | 70° |
| 2026-05-07 19:39 | -23.48035 | 11.66185 | 31065 ft | 550 kts | 70° |
| 2026-05-07 19:40 | -23.45522 | 11.74050 | 31063 ft | 550 kts | 70° |
| 2026-05-07 19:40 | -23.43004 | 11.81914 | 31060 ft | 550 kts | 70° |
| 2026-05-07 19:41 | -23.40485 | 11.89766 | 31050 ft | 550 kts | 70° |
| 2026-05-07 19:41 | -23.37956 | 11.97632 | 31050 ft | 550 kts | 70° |
| 2026-05-07 19:42 | -23.35447 | 12.05426 | 31059 ft | 550 kts | 70° |
| 2026-05-07 19:42 | -23.32912 | 12.13282 | 31051 ft | 550 kts | 70° |
| 2026-05-07 19:43 | -23.30372 | 12.21139 | 31040 ft | 551 kts | 70° |
| 2026-05-07 19:43 | -23.27827 | 12.28996 | 31042 ft | 551 kts | 70° |
| 2026-05-07 19:44 | -23.25298 | 12.36789 | 31017 ft | 550 kts | 70° |
| 2026-05-07 19:44 | -23.22748 | 12.44631 | 31030 ft | 550 kts | 70° |
| 2026-05-07 19:45 | -23.20197 | 12.52463 | 31033 ft | 549 kts | 70° |
| 2026-05-07 19:45 | -23.17643 | 12.60286 | 31033 ft | 549 kts | 70° |
| 2026-05-07 19:46 | -23.15103 | 12.68053 | 31030 ft | 549 kts | 70° |
| 2026-05-07 19:46 | -23.12546 | 12.75859 | 31030 ft | 549 kts | 70° |
| 2026-05-07 19:47 | -23.09981 | 12.83673 | 31025 ft | 549 kts | 69° |
| 2026-05-07 19:47 | -23.07412 | 12.91487 | 31022 ft | 549 kts | 69° |
| 2026-05-07 19:48 | -23.04838 | 12.99301 | 31022 ft | 549 kts | 69° |
| 2026-05-07 19:48 | -23.02277 | 13.07061 | 31016 ft | 550 kts | 69° |
| 2026-05-07 19:49 | -22.99701 | 13.14873 | 31017 ft | 550 kts | 70° |
| 2026-05-07 19:49 | -22.97938 | 13.22930 | 31009 ft | 550 kts | 82° |
| 2026-05-07 19:50 | -22.97448 | 13.31194 | 31012 ft | 549 kts | 92° |
| 2026-05-07 19:50 | -22.97587 | 13.39418 | 31009 ft | 549 kts | 92° |
| 2026-05-07 19:51 | -22.97714 | 13.47703 | 31003 ft | 549 kts | 92° |
| 2026-05-07 19:51 | -22.97790 | 13.55990 | 31006 ft | 550 kts | 91° |
| 2026-05-07 19:52 | -22.97843 | 13.64288 | 31001 ft | 550 kts | 91° |
| 2026-05-07 19:52 | -22.97892 | 13.72534 | 31001 ft | 550 kts | 91° |
| 2026-05-07 19:53 | -22.97941 | 13.80866 | 31317 ft | 553 kts | 91° |
| 2026-05-07 19:53 | -22.97964 | 13.85033 | 31700 ft | 551 kts | 91° |
| 2026-05-07 19:53 | -22.97986 | 13.89175 | 32099 ft | 549 kts | 91° |
| 2026-05-07 19:54 | -22.98007 | 13.93315 | 32459 ft | 548 kts | 91° |
| 2026-05-07 19:54 | -22.98027 | 13.97449 | 32798 ft | 548 kts | 91° |
| 2026-05-07 19:54 | -22.98046 | 14.01590 | 33098 ft | 548 kts | 91° |
| 2026-05-07 19:54 | -22.98064 | 14.05659 | 33387 ft | 548 kts | 91° |
| 2026-05-07 19:55 | -22.98080 | 14.09790 | 33689 ft | 548 kts | 91° |
| 2026-05-07 19:55 | -22.98096 | 14.13932 | 33985 ft | 547 kts | 91° |
| 2026-05-07 19:55 | -22.98110 | 14.18053 | 34231 ft | 547 kts | 91° |
| 2026-05-07 19:55 | -22.98124 | 14.22184 | 34458 ft | 548 kts | 91° |
| 2026-05-07 19:56 | -22.98136 | 14.26320 | 34653 ft | 549 kts | 91° |
| 2026-05-07 19:56 | -22.98148 | 14.30461 | 34860 ft | 549 kts | 91° |
| 2026-05-07 19:56 | -22.98168 | 14.38772 | 34961 ft | 551 kts | 91° |
| 2026-05-07 19:57 | -22.98182 | 14.47014 | 34962 ft | 548 kts | 91° |
| 2026-05-07 19:57 | -22.98193 | 14.55270 | 34963 ft | 546 kts | 91° |
| 2026-05-07 19:58 | -22.98142 | 14.63491 | 34966 ft | 545 kts | 88° |
| 2026-05-07 19:58 | -22.97124 | 14.71646 | 34970 ft | 546 kts | 79° |
| 2026-05-07 19:59 | -22.95667 | 14.79743 | 34970 ft | 547 kts | 79° |
| 2026-05-07 19:59 | -22.94258 | 14.87812 | 34979 ft | 549 kts | 79° |
| 2026-05-07 20:00 | -22.92879 | 14.95964 | 34979 ft | 550 kts | 79° |
| 2026-05-07 20:00 | -22.91497 | 15.04131 | 34990 ft | 551 kts | 79° |
| 2026-05-07 20:01 | -22.90103 | 15.12308 | 34993 ft | 552 kts | 79° |
| 2026-05-07 20:01 | -22.88709 | 15.20437 | 34989 ft | 552 kts | 79° |
| 2026-05-07 20:02 | -22.87294 | 15.28608 | 34998 ft | 552 kts | 79° |
| 2026-05-07 20:02 | -22.85873 | 15.36780 | 35002 ft | 551 kts | 79° |
| 2026-05-07 20:03 | -22.84451 | 15.44938 | 35009 ft | 550 kts | 79° |
| 2026-05-07 20:03 | -22.83037 | 15.53031 | 35021 ft | 550 kts | 79° |
| 2026-05-07 20:04 | -22.81610 | 15.61174 | 35017 ft | 550 kts | 79° |
| 2026-05-07 20:04 | -22.80181 | 15.69309 | 35034 ft | 549 kts | 79° |
| 2026-05-07 20:05 | -22.78747 | 15.77441 | 35027 ft | 549 kts | 79° |
| 2026-05-07 20:05 | -22.77311 | 15.85562 | 35043 ft | 549 kts | 79° |
| 2026-05-07 20:06 | -22.75878 | 15.93640 | 35048 ft | 550 kts | 79° |
| 2026-05-07 20:06 | -22.74430 | 16.01777 | 35049 ft | 550 kts | 78° |
| 2026-05-07 20:07 | -22.72978 | 16.09913 | 35058 ft | 550 kts | 78° |
| 2026-05-07 20:07 | -22.71522 | 16.18048 | 35052 ft | 550 kts | 78° |
| 2026-05-07 20:08 | -22.70062 | 16.26174 | 35069 ft | 549 kts | 78° |
| 2026-05-07 20:08 | -22.68611 | 16.34232 | 35064 ft | 549 kts | 78° |
| 2026-05-07 20:09 | -22.67145 | 16.42349 | 35065 ft | 549 kts | 78° |
| 2026-05-07 20:10 | -22.64940 | 16.54513 | 35065 ft | 549 kts | 78° |
| 2026-05-07 20:10 | -22.63474 | 16.62563 | 35063 ft | 548 kts | 78° |
| 2026-05-07 20:11 | -22.61996 | 16.70662 | 35072 ft | 548 kts | 78° |
| 2026-05-07 20:11 | -22.60516 | 16.78750 | 35072 ft | 548 kts | 78° |
| 2026-05-07 20:12 | -22.59030 | 16.86844 | 35071 ft | 548 kts | 78° |
| 2026-05-07 20:12 | -22.58286 | 16.90889 | 35216 ft | 548 kts | 78° |
| 2026-05-07 20:12 | -22.57551 | 16.94878 | 35239 ft | 548 kts | 78° |
| 2026-05-07 20:13 | -22.56047 | 17.02955 | 35266 ft | 547 kts | 77° |
| 2026-05-07 20:13 | -22.54527 | 17.11025 | 35269 ft | 548 kts | 77° |
| 2026-05-07 20:14 | -22.53002 | 17.19105 | 35241 ft | 548 kts | 77° |
| 2026-05-07 20:14 | -22.51486 | 17.27135 | 35189 ft | 549 kts | 77° |
| 2026-05-07 20:15 | -22.49959 | 17.35212 | 35225 ft | 549 kts | 77° |
| 2026-05-07 20:15 | -22.48272 | 17.43252 | 35231 ft | 547 kts | 70° |
| 2026-05-07 20:16 | -22.45408 | 17.50828 | 35243 ft | 543 kts | 59° |
| 2026-05-07 20:16 | -22.41513 | 17.57755 | 35228 ft | 538 kts | 53° |
| 2026-05-07 20:17 | -22.37434 | 17.64476 | 35182 ft | 539 kts | 53° |
| 2026-05-07 20:17 | -22.33357 | 17.71259 | 35139 ft | 539 kts | 53° |
| 2026-05-07 20:18 | -22.29302 | 17.78073 | 35104 ft | 539 kts | 53° |
| 2026-05-07 20:18 | -22.25252 | 17.84889 | 35082 ft | 539 kts | 53° |
| 2026-05-07 20:19 | -22.21198 | 17.91696 | 35095 ft | 539 kts | 53° |
| 2026-05-07 20:19 | -22.17167 | 17.98451 | 35081 ft | 539 kts | 53° |
| 2026-05-07 20:20 | -22.13108 | 18.05243 | 35101 ft | 538 kts | 53° |
| 2026-05-07 20:20 | -22.09052 | 18.12021 | 35104 ft | 538 kts | 53° |
| 2026-05-07 20:21 | -22.04993 | 18.18798 | 35087 ft | 537 kts | 53° |
| 2026-05-07 20:21 | -22.00954 | 18.25532 | 35091 ft | 537 kts | 53° |
| 2026-05-07 20:22 | -21.96905 | 18.32275 | 35103 ft | 536 kts | 53° |
| 2026-05-07 20:22 | -21.92845 | 18.39027 | 35102 ft | 536 kts | 53° |
| 2026-05-07 20:23 | -21.88792 | 18.45760 | 35109 ft | 536 kts | 53° |
| 2026-05-07 20:23 | -21.84758 | 18.52454 | 35105 ft | 537 kts | 53° |
| 2026-05-07 20:24 | -21.80691 | 18.59189 | 35115 ft | 537 kts | 53° |
| 2026-05-07 20:24 | -21.76607 | 18.65912 | 35115 ft | 537 kts | 53° |
| 2026-05-07 20:25 | -21.72518 | 18.72632 | 35118 ft | 537 kts | 53° |
| 2026-05-07 20:25 | -21.68454 | 18.79308 | 35117 ft | 537 kts | 53° |
| 2026-05-07 20:26 | -21.64368 | 18.86016 | 35126 ft | 537 kts | 53° |
| 2026-05-07 20:26 | -21.60276 | 18.92726 | 35125 ft | 537 kts | 53° |
| 2026-05-07 20:27 | -21.56180 | 18.99433 | 35131 ft | 537 kts | 53° |
| 2026-05-07 20:27 | -21.52083 | 19.06135 | 35133 ft | 537 kts | 53° |
| 2026-05-07 20:28 | -21.48011 | 19.12787 | 35127 ft | 536 kts | 53° |
| 2026-05-07 20:28 | -21.43911 | 19.19476 | 35129 ft | 536 kts | 53° |
| 2026-05-07 20:29 | -21.39812 | 19.26157 | 35130 ft | 536 kts | 53° |
| 2026-05-07 20:29 | -21.35715 | 19.32825 | 35131 ft | 536 kts | 52° |
| 2026-05-07 20:30 | -21.31639 | 19.39451 | 35134 ft | 536 kts | 52° |
| 2026-05-07 20:30 | -21.27533 | 19.46119 | 35110 ft | 535 kts | 52° |
| 2026-05-07 20:31 | -21.23429 | 19.52775 | 35119 ft | 535 kts | 52° |
| 2026-05-07 20:31 | -21.19326 | 19.59424 | 35126 ft | 535 kts | 52° |
| 2026-05-07 20:32 | -21.15220 | 19.66067 | 35129 ft | 535 kts | 52° |
| 2026-05-07 20:32 | -21.11142 | 19.72657 | 35126 ft | 535 kts | 52° |
| 2026-05-07 20:33 | -21.07029 | 19.79299 | 35123 ft | 535 kts | 52° |
| 2026-05-07 20:33 | -21.02913 | 19.85937 | 35127 ft | 535 kts | 52° |
| 2026-05-07 20:34 | -20.98792 | 19.92570 | 35124 ft | 535 kts | 52° |
| 2026-05-07 20:34 | -20.94663 | 19.99194 | 35123 ft | 535 kts | 52° |
| 2026-05-07 20:35 | -20.90560 | 20.05771 | 35124 ft | 535 kts | 52° |
| 2026-05-07 20:35 | -20.86433 | 20.12382 | 35127 ft | 535 kts | 52° |
| 2026-05-07 20:36 | -20.82301 | 20.18996 | 35123 ft | 535 kts | 52° |
| 2026-05-07 20:36 | -20.78166 | 20.25605 | 35121 ft | 535 kts | 52° |
| 2026-05-07 20:37 | -20.74057 | 20.32166 | 35124 ft | 535 kts | 52° |
| 2026-05-07 20:37 | -20.69918 | 20.38766 | 35121 ft | 535 kts | 52° |
| 2026-05-07 20:38 | -20.65782 | 20.45355 | 35126 ft | 535 kts | 52° |
| 2026-05-07 20:38 | -20.61639 | 20.51948 | 35126 ft | 534 kts | 51° |
| 2026-05-07 20:39 | -20.57521 | 20.58491 | 35121 ft | 534 kts | 51° |
| 2026-05-07 20:39 | -20.53375 | 20.65074 | 35124 ft | 534 kts | 51° |
| 2026-05-07 20:40 | -20.49229 | 20.71649 | 35109 ft | 534 kts | 51° |
| 2026-05-07 20:40 | -20.45083 | 20.78215 | 35115 ft | 533 kts | 51° |
| 2026-05-07 20:41 | -20.40970 | 20.84724 | 35117 ft | 533 kts | 51° |
| 2026-05-07 20:41 | -20.36822 | 20.91279 | 35118 ft | 533 kts | 51° |
| 2026-05-07 20:42 | -20.32673 | 20.97832 | 35120 ft | 533 kts | 51° |
| 2026-05-07 20:42 | -20.28522 | 21.04387 | 35119 ft | 534 kts | 51° |
| 2026-05-07 20:43 | -20.24407 | 21.10908 | 35118 ft | 534 kts | 51° |
| 2026-05-07 20:43 | -20.20259 | 21.17468 | 35118 ft | 534 kts | 51° |
| 2026-05-07 20:44 | -20.16099 | 21.24015 | 35119 ft | 534 kts | 51° |
| 2026-05-07 20:44 | -20.11938 | 21.30548 | 35096 ft | 533 kts | 51° |
| 2026-05-07 20:45 | -20.07779 | 21.37077 | 35120 ft | 533 kts | 51° |
| 2026-05-07 20:45 | -20.03650 | 21.43553 | 35122 ft | 532 kts | 51° |
| 2026-05-07 20:46 | -19.99496 | 21.50064 | 35116 ft | 532 kts | 51° |
| 2026-05-07 20:46 | -19.95340 | 21.56568 | 35117 ft | 531 kts | 51° |
| 2026-05-07 20:47 | -19.91191 | 21.63057 | 35119 ft | 531 kts | 51° |
| 2026-05-07 20:47 | -19.87062 | 21.69505 | 35121 ft | 531 kts | 51° |
| 2026-05-07 20:48 | -19.82906 | 21.75989 | 35116 ft | 531 kts | 51° |
| 2026-05-07 20:48 | -19.78746 | 21.82472 | 35121 ft | 531 kts | 51° |
| 2026-05-07 20:49 | -19.74584 | 21.88952 | 35124 ft | 531 kts | 51° |
| 2026-05-07 20:49 | -19.70422 | 21.95424 | 35116 ft | 532 kts | 50° |
| 2026-05-07 20:50 | -19.66275 | 22.01866 | 35129 ft | 533 kts | 50° |
| 2026-05-07 20:50 | -19.62088 | 22.08362 | 35132 ft | 534 kts | 50° |
| 2026-05-07 20:51 | -19.57890 | 22.14871 | 35122 ft | 535 kts | 50° |
| 2026-05-07 20:51 | -19.54393 | 22.20286 | 35126 ft | 536 kts | 50° |
| 2026-05-07 20:52 | -19.49483 | 22.27881 | 35129 ft | 537 kts | 50° |
| 2026-05-07 20:52 | -19.45252 | 22.34420 | 35128 ft | 538 kts | 50° |
| 2026-05-07 20:53 | -19.41020 | 22.40953 | 35127 ft | 538 kts | 50° |
| 2026-05-07 20:53 | -19.37496 | 22.46387 | 35118 ft | 538 kts | 49° |
| 2026-05-07 20:54 | -19.32568 | 22.53979 | 35103 ft | 539 kts | 49° |
| 2026-05-07 20:54 | -19.29033 | 22.59418 | 35127 ft | 540 kts | 49° |
| 2026-05-07 20:55 | -19.24771 | 22.65971 | 35130 ft | 542 kts | 49° |
| 2026-05-07 20:55 | -19.20488 | 22.72550 | 35125 ft | 544 kts | 49° |
| 2026-05-07 20:56 | -19.16196 | 22.79146 | 35120 ft | 545 kts | 49° |
| 2026-05-07 20:56 | -19.11897 | 22.85752 | 35121 ft | 545 kts | 49° |
| 2026-05-07 20:57 | -19.07599 | 22.92352 | 35119 ft | 545 kts | 49° |
| 2026-05-07 20:57 | -19.03315 | 22.98904 | 35119 ft | 545 kts | 48° |
| 2026-05-07 20:58 | -18.98936 | 23.05429 | 35121 ft | 544 kts | 47° |
| 2026-05-07 20:58 | -18.94537 | 23.11924 | 35087 ft | 543 kts | 47° |
| 2026-05-07 20:59 | -18.90184 | 23.18368 | 35114 ft | 542 kts | 47° |
| 2026-05-07 20:59 | -18.85812 | 23.24851 | 35114 ft | 542 kts | 47° |
| 2026-05-07 21:00 | -18.81443 | 23.31328 | 35114 ft | 541 kts | 47° |
| 2026-05-07 21:00 | -18.77077 | 23.37791 | 35117 ft | 541 kts | 47° |
| 2026-05-07 21:01 | -18.72704 | 23.44258 | 35109 ft | 541 kts | 47° |
| 2026-05-07 21:01 | -18.68356 | 23.50680 | 35112 ft | 542 kts | 47° |
| 2026-05-07 21:02 | -18.63975 | 23.57146 | 35115 ft | 542 kts | 47° |
| 2026-05-07 21:02 | -18.59587 | 23.63615 | 35112 ft | 542 kts | 47° |
| 2026-05-07 21:03 | -18.55194 | 23.70084 | 35092 ft | 543 kts | 47° |
| 2026-05-07 21:03 | -18.50837 | 23.76497 | 35099 ft | 542 kts | 47° |
| 2026-05-07 21:04 | -18.46445 | 23.82953 | 35110 ft | 542 kts | 47° |
| 2026-05-07 21:04 | -18.42050 | 23.89405 | 35109 ft | 542 kts | 47° |
| 2026-05-07 21:05 | -18.37654 | 23.95855 | 35111 ft | 542 kts | 47° |
| 2026-05-07 21:05 | -18.33286 | 24.02260 | 35103 ft | 542 kts | 47° |
| 2026-05-07 21:06 | -18.28980 | 24.08794 | 35098 ft | 544 kts | 49° |
| 2026-05-07 21:06 | -18.24744 | 24.15377 | 35105 ft | 544 kts | 49° |
| 2026-05-07 21:07 | -18.20495 | 24.21957 | 35099 ft | 544 kts | 49° |
| 2026-05-07 21:07 | -18.16227 | 24.28519 | 35084 ft | 543 kts | 49° |
| 2026-05-07 21:08 | -18.11986 | 24.35021 | 35103 ft | 542 kts | 49° |
| 2026-05-07 21:08 | -18.07723 | 24.41551 | 35103 ft | 542 kts | 49° |
| 2026-05-07 21:09 | -18.03450 | 24.48092 | 35103 ft | 542 kts | 49° |
| 2026-05-07 21:09 | -17.99186 | 24.54615 | 35104 ft | 542 kts | 49° |
| 2026-05-07 21:10 | -17.94942 | 24.61100 | 35101 ft | 542 kts | 49° |
| 2026-05-07 21:10 | -17.90667 | 24.67625 | 35105 ft | 542 kts | 49° |
| 2026-05-07 21:11 | -17.86394 | 24.74141 | 35105 ft | 542 kts | 49° |
| 2026-05-07 21:11 | -17.79972 | 24.83924 | 35102 ft | 543 kts | 49° |
| 2026-05-07 21:12 | -17.75716 | 24.90400 | 35090 ft | 542 kts | 49° |
| 2026-05-07 21:12 | -17.71432 | 24.96910 | 35090 ft | 542 kts | 49° |
| 2026-05-07 21:13 | -17.67151 | 25.03413 | 35106 ft | 541 kts | 49° |
| 2026-05-07 21:13 | -17.62865 | 25.09903 | 35099 ft | 540 kts | 48° |
| 2026-05-07 21:14 | -17.58434 | 25.16180 | 35091 ft | 538 kts | 46° |
| 2026-05-07 21:14 | -17.53912 | 25.22425 | 35100 ft | 539 kts | 46° |
| 2026-05-07 21:15 | -17.49419 | 25.28711 | 35090 ft | 539 kts | 47° |
| 2026-05-07 21:15 | -17.44940 | 25.35012 | 35089 ft | 539 kts | 47° |
| 2026-05-07 21:16 | -17.40473 | 25.41322 | 35092 ft | 540 kts | 48° |
| 2026-05-07 21:16 | -17.36171 | 25.47714 | 35077 ft | 541 kts | 50° |
| 2026-05-07 21:17 | -17.31892 | 25.54171 | 35083 ft | 540 kts | 50° |
| 2026-05-07 21:17 | -17.27590 | 25.60613 | 35085 ft | 540 kts | 49° |
| 2026-05-07 21:18 | -17.23272 | 25.67034 | 35092 ft | 539 kts | 49° |
| 2026-05-07 21:18 | -17.18976 | 25.73407 | 35090 ft | 540 kts | 49° |
| 2026-05-07 21:19 | -17.14650 | 25.79823 | 35086 ft | 540 kts | 49° |
| 2026-05-07 21:19 | -17.10327 | 25.86231 | 35091 ft | 540 kts | 49° |
| 2026-05-07 21:20 | -17.05992 | 25.92653 | 35090 ft | 540 kts | 49° |
| 2026-05-07 21:20 | -17.01662 | 25.99060 | 35090 ft | 540 kts | 49° |
| 2026-05-07 21:21 | -16.97352 | 26.05432 | 35093 ft | 541 kts | 49° |
| 2026-05-07 21:21 | -16.93009 | 26.11847 | 35088 ft | 541 kts | 49° |
| 2026-05-07 21:22 | -16.88663 | 26.18261 | 35092 ft | 541 kts | 49° |
| 2026-05-07 21:22 | -16.84315 | 26.24673 | 35093 ft | 541 kts | 49° |
| 2026-05-07 21:23 | -16.79969 | 26.31076 | 35090 ft | 541 kts | 49° |
| 2026-05-07 21:23 | -16.75611 | 26.37406 | 35096 ft | 540 kts | 48° |
| 2026-05-07 21:24 | -16.71150 | 26.43712 | 35097 ft | 540 kts | 48° |
| 2026-05-07 21:24 | -16.66683 | 26.50013 | 35091 ft | 540 kts | 48° |
| 2026-05-07 21:25 | -16.62227 | 26.56323 | 35093 ft | 540 kts | 48° |
| 2026-05-07 21:25 | -16.57774 | 26.62636 | 35076 ft | 540 kts | 49° |
| 2026-05-07 21:26 | -16.53354 | 26.68899 | 35093 ft | 540 kts | 49° |
| 2026-05-07 21:26 | -16.48910 | 26.75189 | 35088 ft | 539 kts | 48° |
| 2026-05-07 21:27 | -16.44458 | 26.81481 | 35091 ft | 539 kts | 48° |
| 2026-05-07 21:27 | -16.40037 | 26.87724 | 35061 ft | 539 kts | 49° |
| 2026-05-07 21:28 | -16.35594 | 26.93995 | 35072 ft | 537 kts | 49° |
| 2026-05-07 21:28 | -16.31158 | 27.00250 | 35074 ft | 536 kts | 49° |
| 2026-05-07 21:29 | -16.26731 | 27.06486 | 35066 ft | 536 kts | 48° |
| 2026-05-07 21:29 | -16.22303 | 27.12719 | 35063 ft | 535 kts | 48° |
| 2026-05-07 21:30 | -16.17907 | 27.18901 | 35055 ft | 534 kts | 49° |
| 2026-05-07 21:30 | -16.13489 | 27.25110 | 35059 ft | 533 kts | 49° |
| 2026-05-07 21:31 | -16.09077 | 27.31306 | 35055 ft | 533 kts | 49° |
| 2026-05-07 21:31 | -16.04710 | 27.37524 | 35051 ft | 533 kts | 50° |
| 2026-05-07 21:32 | -16.00454 | 27.43778 | 35047 ft | 533 kts | 50° |
| 2026-05-07 21:32 | -15.96177 | 27.50076 | 35058 ft | 533 kts | 50° |
| 2026-05-07 21:33 | -15.91887 | 27.56357 | 35038 ft | 533 kts | 50° |
| 2026-05-07 21:33 | -15.87591 | 27.62623 | 35043 ft | 532 kts | 50° |
| 2026-05-07 21:34 | -15.83322 | 27.68842 | 35059 ft | 532 kts | 50° |
| 2026-05-07 21:34 | -15.79026 | 27.75096 | 35045 ft | 531 kts | 50° |
| 2026-05-07 21:35 | -15.74742 | 27.81331 | 35037 ft | 531 kts | 50° |
| 2026-05-07 21:35 | -15.70458 | 27.87560 | 35042 ft | 530 kts | 50° |
| 2026-05-07 21:36 | -15.66178 | 27.93778 | 35039 ft | 529 kts | 50° |
| 2026-05-07 21:36 | -15.61928 | 27.99947 | 35040 ft | 529 kts | 50° |
| 2026-05-07 21:37 | -15.57649 | 28.06153 | 35041 ft | 529 kts | 50° |
| 2026-05-07 21:37 | -15.53364 | 28.12363 | 35042 ft | 530 kts | 50° |
| 2026-05-07 21:38 | -15.49074 | 28.18573 | 35038 ft | 531 kts | 50° |
| 2026-05-07 21:38 | -15.44799 | 28.24759 | 35096 ft | 532 kts | 50° |
| 2026-05-07 21:39 | -15.40489 | 28.30991 | 35128 ft | 532 kts | 51° |
| 2026-05-07 21:39 | -15.36182 | 28.37216 | 35159 ft | 531 kts | 51° |
| 2026-05-07 21:40 | -15.31868 | 28.43430 | 35155 ft | 531 kts | 50° |
| 2026-05-07 21:40 | -15.27482 | 28.49512 | 35157 ft | 530 kts | 49° |
| 2026-05-07 21:41 | -15.23025 | 28.55583 | 35132 ft | 530 kts | 49° |
| 2026-05-07 21:41 | -15.18572 | 28.61668 | 35095 ft | 530 kts | 49° |
| 2026-05-07 21:42 | -15.14130 | 28.67765 | 35061 ft | 530 kts | 49° |
| 2026-05-07 21:42 | -15.09725 | 28.73816 | 35024 ft | 529 kts | 49° |
| 2026-05-07 21:43 | -15.05297 | 28.79894 | 35019 ft | 528 kts | 49° |
| 2026-05-07 21:43 | -15.00878 | 28.85952 | 35010 ft | 526 kts | 50° |
| 2026-05-07 21:44 | -14.96508 | 28.91937 | 35003 ft | 524 kts | 50° |
| 2026-05-07 21:44 | -14.92129 | 28.97929 | 34993 ft | 521 kts | 50° |
| 2026-05-07 21:45 | -14.87773 | 29.03886 | 34987 ft | 518 kts | 50° |
| 2026-05-07 21:45 | -14.83441 | 29.09806 | 34990 ft | 515 kts | 50° |
| 2026-05-07 21:46 | -14.79125 | 29.15699 | 34989 ft | 513 kts | 50° |
| 2026-05-07 21:46 | -14.74842 | 29.21541 | 34991 ft | 513 kts | 50° |
| 2026-05-07 21:47 | -14.70530 | 29.27420 | 34987 ft | 514 kts | 50° |
| 2026-05-07 21:47 | -14.66206 | 29.33310 | 34988 ft | 515 kts | 50° |
| 2026-05-07 21:48 | -14.61881 | 29.39198 | 34989 ft | 514 kts | 50° |
| 2026-05-07 21:48 | -14.57590 | 29.45037 | 34992 ft | 513 kts | 50° |
| 2026-05-07 21:49 | -14.53276 | 29.50903 | 34993 ft | 512 kts | 50° |
| 2026-05-07 21:49 | -14.48967 | 29.56756 | 34988 ft | 512 kts | 50° |
| 2026-05-07 21:50 | -14.44667 | 29.62592 | 34994 ft | 511 kts | 50° |
| 2026-05-07 21:50 | -14.40389 | 29.68396 | 35001 ft | 511 kts | 50° |
| 2026-05-07 21:51 | -14.36092 | 29.74220 | 35001 ft | 511 kts | 50° |
| 2026-05-07 21:51 | -14.31786 | 29.80052 | 34999 ft | 511 kts | 50° |
| 2026-05-07 21:52 | -14.27476 | 29.85885 | 34991 ft | 511 kts | 50° |
| 2026-05-07 21:52 | -14.23169 | 29.91711 | 35000 ft | 510 kts | 50° |
| 2026-05-07 21:53 | -14.18904 | 29.97477 | 34973 ft | 509 kts | 50° |
| 2026-05-07 21:53 | -14.14613 | 30.03273 | 34980 ft | 507 kts | 50° |
| 2026-05-07 21:54 | -14.10342 | 30.09037 | 34979 ft | 506 kts | 50° |
| 2026-05-07 21:54 | -14.06074 | 30.14795 | 34976 ft | 505 kts | 51° |
| 2026-05-07 21:55 | -14.01840 | 30.20502 | 34965 ft | 504 kts | 50° |
| 2026-05-07 21:55 | -13.97578 | 30.26243 | 34963 ft | 505 kts | 50° |
| 2026-05-07 21:56 | -13.93318 | 30.31978 | 34971 ft | 505 kts | 50° |
| 2026-05-07 21:56 | -13.89045 | 30.37727 | 34964 ft | 505 kts | 51° |
| 2026-05-07 21:57 | -13.84780 | 30.43462 | 34968 ft | 505 kts | 51° |
| 2026-05-07 21:57 | -13.80533 | 30.49156 | 34968 ft | 505 kts | 51° |
| 2026-05-07 21:58 | -13.76209 | 30.54838 | 34964 ft | 504 kts | 50° |
| 2026-05-07 21:58 | -13.71873 | 30.60505 | 34965 ft | 504 kts | 50° |
| 2026-05-07 21:59 | -13.67544 | 30.66174 | 34957 ft | 504 kts | 50° |
| 2026-05-07 21:59 | -13.63254 | 30.71799 | 34971 ft | 504 kts | 50° |
| 2026-05-07 22:00 | -13.58932 | 30.77466 | 34968 ft | 504 kts | 50° |
| 2026-05-07 22:00 | -13.54607 | 30.83130 | 34966 ft | 504 kts | 50° |
| 2026-05-07 22:01 | -13.50280 | 30.88794 | 34987 ft | 503 kts | 50° |
| 2026-05-07 22:01 | -13.45988 | 30.94408 | 34977 ft | 502 kts | 50° |
| 2026-05-07 22:02 | -13.41676 | 31.00044 | 34965 ft | 501 kts | 50° |
| 2026-05-07 22:02 | -13.37377 | 31.05661 | 34966 ft | 500 kts | 50° |
| 2026-05-07 22:03 | -13.33077 | 31.11274 | 34970 ft | 500 kts | 50° |
| 2026-05-07 22:03 | -13.28809 | 31.16843 | 34969 ft | 499 kts | 50° |
| 2026-05-07 22:04 | -13.24511 | 31.22446 | 34961 ft | 499 kts | 50° |
| 2026-05-07 22:04 | -13.20213 | 31.28048 | 34972 ft | 500 kts | 50° |
| 2026-05-07 22:05 | -13.15904 | 31.33661 | 34964 ft | 501 kts | 50° |
| 2026-05-07 22:05 | -13.11779 | 31.39435 | 34962 ft | 502 kts | 54° |
| 2026-05-07 22:06 | -13.07834 | 31.45302 | 34954 ft | 503 kts | 54° |
| 2026-05-07 22:06 | -13.03847 | 31.51208 | 34963 ft | 504 kts | 54° |
| 2026-05-07 22:07 | -12.99835 | 31.57105 | 34945 ft | 504 kts | 54° |
| 2026-05-07 22:07 | -12.95819 | 31.63000 | 34950 ft | 505 kts | 54° |
| 2026-05-07 22:08 | -12.91713 | 31.68782 | 34938 ft | 504 kts | 50° |
| 2026-05-07 22:08 | -12.87251 | 31.74332 | 34944 ft | 504 kts | 49° |
| 2026-05-07 22:09 | -12.82764 | 31.79864 | 34934 ft | 505 kts | 49° |
| 2026-05-07 22:09 | -12.78298 | 31.85407 | 34932 ft | 504 kts | 50° |
| 2026-05-07 22:10 | -12.73854 | 31.90944 | 34927 ft | 503 kts | 50° |
| 2026-05-07 22:10 | -12.69446 | 31.96439 | 34931 ft | 502 kts | 50° |
| 2026-05-07 22:11 | -12.65012 | 32.01960 | 34928 ft | 501 kts | 50° |
| 2026-05-07 22:11 | -12.60582 | 32.07472 | 34926 ft | 501 kts | 50° |
| 2026-05-07 22:12 | -12.56149 | 32.12983 | 34931 ft | 502 kts | 50° |
| 2026-05-07 22:12 | -12.51739 | 32.18462 | 34936 ft | 502 kts | 50° |
| 2026-05-07 22:13 | -12.47294 | 32.23981 | 34932 ft | 503 kts | 50° |
| 2026-05-07 22:13 | -12.42836 | 32.29514 | 34938 ft | 504 kts | 50° |
| 2026-05-07 22:14 | -12.38371 | 32.35052 | 34931 ft | 505 kts | 50° |
| 2026-05-07 22:14 | -12.33930 | 32.40558 | 34940 ft | 505 kts | 50° |
| 2026-05-07 22:15 | -12.29455 | 32.46102 | 34941 ft | 506 kts | 50° |
| 2026-05-07 22:15 | -12.24977 | 32.51649 | 34942 ft | 506 kts | 50° |
| 2026-05-07 22:16 | -12.20502 | 32.57188 | 34946 ft | 506 kts | 50° |
| 2026-05-07 22:16 | -12.16017 | 32.62727 | 34941 ft | 506 kts | 50° |
| 2026-05-07 22:17 | -12.11557 | 32.68222 | 34949 ft | 505 kts | 50° |
| 2026-05-07 22:17 | -12.07068 | 32.73753 | 34954 ft | 506 kts | 50° |
| 2026-05-07 22:18 | -12.00332 | 32.82049 | 34947 ft | 505 kts | 50° |
| 2026-05-07 22:19 | -11.95843 | 32.87575 | 34965 ft | 505 kts | 50° |
| 2026-05-07 22:19 | -11.91388 | 32.93055 | 34960 ft | 505 kts | 50° |
| 2026-05-07 22:20 | -11.86897 | 32.98577 | 34970 ft | 505 kts | 50° |
| 2026-05-07 22:20 | -11.82403 | 33.04099 | 34970 ft | 506 kts | 50° |
| 2026-05-07 22:21 | -11.77936 | 33.09585 | 34980 ft | 506 kts | 50° |
| 2026-05-07 22:21 | -11.73437 | 33.15108 | 34980 ft | 506 kts | 50° |
| 2026-05-07 22:22 | -11.68943 | 33.20621 | 34987 ft | 506 kts | 50° |
| 2026-05-07 22:22 | -11.64445 | 33.26138 | 34984 ft | 506 kts | 50° |
| 2026-05-07 22:23 | -11.59946 | 33.31651 | 34998 ft | 505 kts | 50° |
| 2026-05-07 22:23 | -11.55552 | 33.37184 | 34999 ft | 505 kts | 51° |
| 2026-05-07 22:24 | -11.51204 | 33.42815 | 35000 ft | 505 kts | 51° |
| 2026-05-07 22:24 | -11.46845 | 33.48434 | 35010 ft | 505 kts | 51° |
| 2026-05-07 22:25 | -11.42477 | 33.54034 | 35008 ft | 505 kts | 51° |
| 2026-05-07 22:25 | -11.38131 | 33.59600 | 35009 ft | 505 kts | 51° |
| 2026-05-07 22:26 | -11.33756 | 33.65201 | 35006 ft | 505 kts | 51° |
| 2026-05-07 22:26 | -11.29376 | 33.70799 | 35030 ft | 505 kts | 51° |
| 2026-05-07 22:27 | -11.24995 | 33.76394 | 35024 ft | 505 kts | 51° |
| 2026-05-07 22:27 | -11.20649 | 33.81945 | 35018 ft | 504 kts | 51° |
| 2026-05-07 22:28 | -11.16280 | 33.87522 | 35022 ft | 503 kts | 51° |
| 2026-05-07 22:28 | -11.11921 | 33.93085 | 35022 ft | 503 kts | 51° |
| 2026-05-07 22:29 | -11.07558 | 33.98649 | 35020 ft | 503 kts | 51° |
| 2026-05-07 22:29 | -11.03189 | 34.04217 | 35014 ft | 504 kts | 51° |
| 2026-05-07 22:30 | -10.98841 | 34.09757 | 35016 ft | 505 kts | 50° |
| 2026-05-07 22:30 | -10.94454 | 34.15342 | 34998 ft | 505 kts | 51° |
| 2026-05-07 22:31 | -10.90062 | 34.20932 | 35000 ft | 506 kts | 51° |
| 2026-05-07 22:31 | -10.85672 | 34.26516 | 34973 ft | 505 kts | 51° |
| 2026-05-07 22:32 | -10.81294 | 34.32084 | 34949 ft | 504 kts | 51° |
| 2026-05-07 22:32 | -10.76947 | 34.37609 | 34950 ft | 503 kts | 51° |
| 2026-05-07 22:33 | -10.72567 | 34.43152 | 34944 ft | 502 kts | 50° |
| 2026-05-07 22:33 | -10.68126 | 34.48634 | 34942 ft | 502 kts | 50° |
| 2026-05-07 22:34 | -10.63682 | 34.54104 | 34949 ft | 501 kts | 50° |
| 2026-05-07 22:34 | -10.59285 | 34.59538 | 34947 ft | 501 kts | 50° |
| 2026-05-07 22:35 | -10.54858 | 34.65016 | 34964 ft | 502 kts | 50° |
| 2026-05-07 22:35 | -10.50474 | 34.70537 | 34959 ft | 502 kts | 51° |
| 2026-05-07 22:36 | -10.46108 | 34.76075 | 34979 ft | 502 kts | 51° |
| 2026-05-07 22:36 | -10.41767 | 34.81570 | 34982 ft | 502 kts | 51° |
| 2026-05-07 22:37 | -10.37398 | 34.87089 | 35000 ft | 502 kts | 51° |
| 2026-05-07 22:37 | -10.33017 | 34.92614 | 34991 ft | 501 kts | 51° |
| 2026-05-07 22:38 | -10.28647 | 34.98123 | 35001 ft | 501 kts | 51° |
| 2026-05-07 22:38 | -10.24303 | 35.03597 | 35012 ft | 501 kts | 51° |
| 2026-05-07 22:39 | -10.19930 | 35.09105 | 35009 ft | 501 kts | 51° |
| 2026-05-07 22:39 | -10.15555 | 35.14613 | 35009 ft | 501 kts | 51° |
| 2026-05-07 22:40 | -10.11206 | 35.20085 | 35020 ft | 501 kts | 51° |
| 2026-05-07 22:40 | -10.06829 | 35.25591 | 35011 ft | 502 kts | 51° |
| 2026-05-07 22:41 | -10.02445 | 35.31102 | 35012 ft | 502 kts | 51° |
| 2026-05-07 22:41 | -9.98061 | 35.36610 | 35013 ft | 501 kts | 51° |
| 2026-05-07 22:42 | -9.93679 | 35.42114 | 35013 ft | 501 kts | 51° |
| 2026-05-07 22:42 | -9.89327 | 35.47577 | 35007 ft | 501 kts | 51° |
| 2026-05-07 22:43 | -9.84953 | 35.53065 | 35013 ft | 500 kts | 51° |
| 2026-05-07 22:43 | -9.80580 | 35.58550 | 35002 ft | 500 kts | 51° |
| 2026-05-07 22:44 | -9.76213 | 35.64025 | 35003 ft | 499 kts | 51° |
| 2026-05-07 22:44 | -9.71852 | 35.69489 | 34995 ft | 498 kts | 51° |
| 2026-05-07 22:45 | -9.67523 | 35.74911 | 34994 ft | 498 kts | 51° |
| 2026-05-07 22:45 | -9.63167 | 35.80364 | 34989 ft | 498 kts | 51° |
| 2026-05-07 22:46 | -9.58811 | 35.85815 | 34992 ft | 498 kts | 51° |
| 2026-05-07 22:46 | -9.54457 | 35.91261 | 34978 ft | 498 kts | 51° |
| 2026-05-07 22:47 | -9.50094 | 35.96715 | 34985 ft | 498 kts | 51° |
| 2026-05-07 22:47 | -9.45758 | 36.02134 | 34982 ft | 499 kts | 51° |
| 2026-05-07 22:48 | -9.41389 | 36.07592 | 34980 ft | 499 kts | 51° |
| 2026-05-07 22:48 | -9.37017 | 36.13049 | 34978 ft | 499 kts | 51° |
| 2026-05-07 22:49 | -9.32644 | 36.18507 | 34977 ft | 499 kts | 51° |
| 2026-05-07 22:49 | -9.28304 | 36.23922 | 34975 ft | 499 kts | 51° |
| 2026-05-07 22:50 | -9.23929 | 36.29376 | 34981 ft | 499 kts | 51° |
| 2026-05-07 22:50 | -9.19556 | 36.34826 | 34980 ft | 499 kts | 51° |
| 2026-05-07 22:51 | -9.15184 | 36.40273 | 34986 ft | 498 kts | 51° |
| 2026-05-07 22:51 | -9.10841 | 36.45681 | 34983 ft | 498 kts | 51° |
| 2026-05-07 22:52 | -9.06474 | 36.51117 | 34990 ft | 498 kts | 51° |
| 2026-05-07 22:52 | -9.02102 | 36.56556 | 34983 ft | 498 kts | 51° |
| 2026-05-07 22:53 | -8.97731 | 36.61992 | 34983 ft | 498 kts | 51° |
| 2026-05-07 22:53 | -8.93391 | 36.67388 | 34983 ft | 498 kts | 51° |
| 2026-05-07 22:54 | -8.89021 | 36.72817 | 34984 ft | 497 kts | 51° |
| 2026-05-07 22:54 | -8.84652 | 36.78245 | 34980 ft | 498 kts | 51° |
| 2026-05-07 22:55 | -8.80279 | 36.83674 | 34983 ft | 498 kts | 51° |
| 2026-05-07 22:55 | -8.75934 | 36.89066 | 34976 ft | 499 kts | 51° |
| 2026-05-07 22:56 | -8.71544 | 36.94512 | 34974 ft | 500 kts | 51° |
| 2026-05-07 22:56 | -8.67144 | 36.99970 | 34971 ft | 501 kts | 51° |
| 2026-05-07 22:57 | -8.62735 | 37.05434 | 34967 ft | 502 kts | 51° |
| 2026-05-07 22:57 | -8.58352 | 37.10865 | 34964 ft | 502 kts | 51° |
| 2026-05-07 22:58 | -8.53944 | 37.16324 | 34957 ft | 502 kts | 51° |
| 2026-05-07 22:58 | -8.49532 | 37.21786 | 34955 ft | 501 kts | 51° |
| 2026-05-07 22:59 | -8.45122 | 37.27244 | 34953 ft | 501 kts | 51° |
| 2026-05-07 22:59 | -8.40745 | 37.32659 | 34953 ft | 501 kts | 51° |
| 2026-05-07 23:00 | -8.36341 | 37.38105 | 34952 ft | 500 kts | 51° |
| 2026-05-07 23:00 | -8.31941 | 37.43544 | 34956 ft | 500 kts | 51° |
| 2026-05-07 23:01 | -8.27542 | 37.48980 | 34957 ft | 500 kts | 50° |
| 2026-05-07 23:01 | -8.23140 | 37.54417 | 34954 ft | 500 kts | 50° |
| 2026-05-07 23:02 | -8.18769 | 37.59813 | 34954 ft | 500 kts | 50° |
| 2026-05-07 23:02 | -8.14360 | 37.65255 | 34953 ft | 501 kts | 50° |
| 2026-05-07 23:03 | -8.09949 | 37.70698 | 34960 ft | 501 kts | 51° |
| 2026-05-07 23:03 | -8.05545 | 37.76130 | 34957 ft | 499 kts | 50° |
| 2026-05-07 23:04 | -8.01154 | 37.81544 | 34950 ft | 498 kts | 50° |
| 2026-05-07 23:04 | -7.96810 | 37.86898 | 34952 ft | 496 kts | 50° |
| 2026-05-07 23:05 | -7.92097 | 37.91953 | 34951 ft | 494 kts | 41° |
| 2026-05-07 23:05 | -7.86909 | 37.96500 | 34958 ft | 494 kts | 40° |
| 2026-05-07 23:06 | -7.81714 | 38.01035 | 34951 ft | 494 kts | 41° |
| 2026-05-07 23:06 | -7.76572 | 38.05566 | 34957 ft | 494 kts | 41° |
| 2026-05-07 23:07 | -7.71407 | 38.10142 | 34956 ft | 494 kts | 41° |
| 2026-05-07 23:07 | -7.66242 | 38.14722 | 34954 ft | 494 kts | 41° |
| 2026-05-07 23:08 | -7.61081 | 38.19296 | 34952 ft | 494 kts | 41° |
| 2026-05-07 23:08 | -7.55911 | 38.23874 | 34951 ft | 495 kts | 41° |
| 2026-05-07 23:09 | -7.50774 | 38.28421 | 34954 ft | 495 kts | 41° |
| 2026-05-07 23:09 | -7.45600 | 38.32999 | 34952 ft | 495 kts | 41° |
| 2026-05-07 23:10 | -7.40425 | 38.37577 | 34957 ft | 495 kts | 41° |
| 2026-05-07 23:10 | -7.35285 | 38.42122 | 34958 ft | 495 kts | 41° |
| 2026-05-07 23:11 | -7.30117 | 38.46690 | 34953 ft | 495 kts | 41° |
| 2026-05-07 23:11 | -7.24945 | 38.51261 | 34955 ft | 494 kts | 41° |
| 2026-05-07 23:12 | -7.19773 | 38.55829 | 34962 ft | 494 kts | 41° |
| 2026-05-07 23:12 | -7.14636 | 38.60366 | 34961 ft | 494 kts | 41° |
| 2026-05-07 23:13 | -7.09465 | 38.64931 | 34961 ft | 494 kts | 41° |
| 2026-05-07 23:13 | -7.04299 | 38.69490 | 34955 ft | 494 kts | 41° |
| 2026-05-07 23:14 | -6.99138 | 38.74044 | 34957 ft | 493 kts | 41° |
| 2026-05-07 23:14 | -6.93977 | 38.78597 | 34953 ft | 493 kts | 41° |
| 2026-05-07 23:15 | -6.88854 | 38.83114 | 34957 ft | 493 kts | 41° |
| 2026-05-07 23:15 | -6.83700 | 38.87657 | 34964 ft | 493 kts | 41° |
| 2026-05-07 23:16 | -6.78542 | 38.92203 | 34971 ft | 492 kts | 41° |
| 2026-05-07 23:16 | -6.73393 | 38.96739 | 34961 ft | 492 kts | 41° |
| 2026-05-07 23:17 | -6.68281 | 39.01241 | 34968 ft | 491 kts | 41° |
| 2026-05-07 23:17 | -6.63148 | 39.05761 | 34962 ft | 491 kts | 41° |
| 2026-05-07 23:18 | -6.58011 | 39.10283 | 34951 ft | 491 kts | 41° |
| 2026-05-07 23:18 | -6.52877 | 39.14800 | 34943 ft | 490 kts | 41° |
| 2026-05-07 23:19 | -6.47741 | 39.19319 | 34937 ft | 490 kts | 41° |
| 2026-05-07 23:19 | -6.42645 | 39.23801 | 34932 ft | 490 kts | 41° |
| 2026-05-07 23:20 | -6.37513 | 39.28313 | 34931 ft | 490 kts | 41° |
| 2026-05-07 23:20 | -6.32394 | 39.32813 | 34938 ft | 490 kts | 41° |
| 2026-05-07 23:21 | -6.27254 | 39.37329 | 34934 ft | 491 kts | 41° |
| 2026-05-07 23:21 | -6.22159 | 39.41805 | 34927 ft | 491 kts | 41° |
| 2026-05-07 23:22 | -6.17018 | 39.46320 | 34926 ft | 491 kts | 41° |
| 2026-05-07 23:22 | -6.11875 | 39.50836 | 34925 ft | 492 kts | 41° |
| 2026-05-07 23:23 | -6.06723 | 39.55359 | 34921 ft | 492 kts | 41° |
| 2026-05-07 23:23 | -6.01605 | 39.59850 | 34931 ft | 491 kts | 41° |
| 2026-05-07 23:24 | -5.96460 | 39.64364 | 34920 ft | 490 kts | 41° |
| 2026-05-07 23:24 | -5.91332 | 39.68862 | 34918 ft | 489 kts | 41° |
| 2026-05-07 23:25 | -5.86208 | 39.73354 | 34926 ft | 489 kts | 41° |
| 2026-05-07 23:25 | -5.81122 | 39.77814 | 34917 ft | 488 kts | 41° |
| 2026-05-07 23:26 | -5.76004 | 39.82300 | 34919 ft | 488 kts | 41° |
| 2026-05-07 23:26 | -5.70890 | 39.86781 | 34922 ft | 488 kts | 41° |
| 2026-05-07 23:27 | -5.63202 | 39.93515 | 34912 ft | 489 kts | 41° |
| 2026-05-07 23:27 | -5.58072 | 39.98008 | 34918 ft | 489 kts | 41° |
| 2026-05-07 23:28 | -5.52974 | 40.02471 | 34923 ft | 489 kts | 41° |
| 2026-05-07 23:28 | -5.47854 | 40.06952 | 34913 ft | 489 kts | 41° |
| 2026-05-07 23:29 | -5.42731 | 40.11436 | 34911 ft | 488 kts | 41° |
| 2026-05-07 23:29 | -5.37617 | 40.15910 | 34913 ft | 488 kts | 41° |
| 2026-05-07 23:30 | -5.32537 | 40.20354 | 34916 ft | 488 kts | 41° |
| 2026-05-07 23:30 | -5.27423 | 40.24826 | 34918 ft | 488 kts | 41° |
| 2026-05-07 23:31 | -5.22300 | 40.29307 | 34915 ft | 489 kts | 41° |
| 2026-05-07 23:31 | -5.17167 | 40.33795 | 34913 ft | 489 kts | 41° |
| 2026-05-07 23:32 | -5.12079 | 40.38241 | 34908 ft | 488 kts | 41° |
| 2026-05-07 23:32 | -5.06822 | 40.42543 | 34906 ft | 488 kts | 38° |
| 2026-05-07 23:33 | -5.01442 | 40.46685 | 34912 ft | 488 kts | 38° |
| 2026-05-07 23:33 | -4.96087 | 40.50862 | 34910 ft | 489 kts | 38° |
| 2026-05-07 23:34 | -4.91645 | 40.54367 | 34912 ft | 490 kts | 38° |
| 2026-05-07 23:34 | -4.86277 | 40.58606 | 34908 ft | 492 kts | 38° |
| 2026-05-07 23:35 | -4.79920 | 40.63329 | 34904 ft | 492 kts | 32° |
| 2026-05-07 23:35 | -4.74076 | 40.66868 | 34906 ft | 492 kts | 31° |
| 2026-05-07 23:36 | -4.69201 | 40.69794 | 34903 ft | 491 kts | 31° |
| 2026-05-07 23:36 | -4.63352 | 40.73338 | 34903 ft | 491 kts | 31° |
| 2026-05-07 23:37 | -4.56575 | 40.77472 | 34905 ft | 491 kts | 31° |
| 2026-05-07 23:37 | -4.51687 | 40.80457 | 34906 ft | 492 kts | 31° |
| 2026-05-07 23:38 | -4.45868 | 40.84009 | 34902 ft | 493 kts | 31° |
| 2026-05-07 23:38 | -4.39997 | 40.87590 | 34902 ft | 494 kts | 31° |
| 2026-05-07 23:39 | -4.34120 | 40.91174 | 34905 ft | 495 kts | 31° |
| 2026-05-07 23:39 | -4.28232 | 40.94764 | 34895 ft | 496 kts | 31° |
| 2026-05-07 23:40 | -4.22367 | 40.98340 | 34905 ft | 497 kts | 31° |
| 2026-05-07 23:40 | -4.16453 | 41.01945 | 34900 ft | 498 kts | 31° |
| 2026-05-07 23:41 | -4.10528 | 41.05556 | 34901 ft | 499 kts | 31° |
| 2026-05-07 23:41 | -4.04600 | 41.09169 | 34899 ft | 499 kts | 31° |
| 2026-05-07 23:42 | -3.98727 | 41.12794 | 34898 ft | 500 kts | 34° |
| 2026-05-07 23:42 | -3.93108 | 41.16893 | 34910 ft | 500 kts | 36° |
| 2026-05-07 23:43 | -3.87539 | 41.21066 | 34901 ft | 500 kts | 36° |
| 2026-05-07 23:43 | -3.81960 | 41.25225 | 34898 ft | 500 kts | 36° |
| 2026-05-07 23:44 | -3.76402 | 41.29343 | 34898 ft | 500 kts | 36° |
| 2026-05-07 23:44 | -3.70803 | 41.33483 | 34899 ft | 500 kts | 36° |
| 2026-05-07 23:45 | -3.65204 | 41.37622 | 34895 ft | 500 kts | 36° |
| 2026-05-07 23:45 | -3.59608 | 41.41760 | 34897 ft | 501 kts | 36° |
| 2026-05-07 23:46 | -3.54002 | 41.45905 | 34893 ft | 501 kts | 36° |
| 2026-05-07 23:46 | -3.48431 | 41.50024 | 34892 ft | 501 kts | 36° |
| 2026-05-07 23:47 | -3.42820 | 41.54171 | 34893 ft | 501 kts | 36° |
| 2026-05-07 23:47 | -3.37209 | 41.58318 | 34892 ft | 501 kts | 36° |
| 2026-05-07 23:48 | -3.31633 | 41.62439 | 34892 ft | 502 kts | 36° |
| 2026-05-07 23:48 | -3.26022 | 41.66584 | 34891 ft | 502 kts | 36° |
| 2026-05-07 23:49 | -3.20398 | 41.70739 | 34890 ft | 502 kts | 36° |
| 2026-05-07 23:49 | -3.14776 | 41.74892 | 34890 ft | 502 kts | 36° |
| 2026-05-07 23:50 | -3.09153 | 41.79044 | 34891 ft | 502 kts | 36° |
| 2026-05-07 23:50 | -3.03572 | 41.83166 | 34888 ft | 502 kts | 36° |
| 2026-05-07 23:51 | -2.97946 | 41.87320 | 34888 ft | 502 kts | 36° |
| 2026-05-07 23:51 | -2.92320 | 41.91473 | 34887 ft | 503 kts | 36° |
| 2026-05-07 23:52 | -2.86693 | 41.95627 | 34885 ft | 503 kts | 36° |
| 2026-05-07 23:52 | -2.81065 | 41.99781 | 34883 ft | 503 kts | 36° |
| 2026-05-07 23:53 | -2.75478 | 42.03904 | 34885 ft | 503 kts | 36° |
| 2026-05-07 23:53 | -2.69840 | 42.08064 | 34887 ft | 503 kts | 36° |
| 2026-05-07 23:54 | -2.11771 | 42.44870 | 34886 ft | 27713 kts | 36° |
| 2026-05-07 23:54 | -0.04920 | 43.29599 | 34801 ft | 501 kts | 45° |
| 2026-05-07 23:55 | 0.25659 | 43.56930 | 34354 ft | 27286 kts | 52° |
| 2026-05-07 23:55 | 1.79874 | 44.65723 | 34359 ft | 27115 kts | 36° |
| 2026-05-07 23:55 | 3.33234 | 45.76255 | 34357 ft | 26869 kts | 36° |
| 2026-05-07 23:55 | 4.50708 | 46.61036 | 34397 ft | 491 kts | 37° |
| 2026-05-07 23:56 | 4.70955 | 46.84667 | 34395 ft | 26983 kts | 50° |
| 2026-05-07 23:56 | 5.40562 | 47.65860 | 34378 ft | 27037 kts | 50° |
| 2026-05-07 23:56 | 6.00499 | 48.21563 | 34519 ft | 484 kts | 43° |
| 2026-05-07 23:56 | 6.02753 | 48.24047 | 34626 ft | 485 kts | 59° |
| 2026-05-07 23:57 | 6.04046 | 48.27104 | 34760 ft | 484 kts | 78° |
| 2026-05-07 23:57 | 6.04340 | 48.30459 | 34823 ft | 481 kts | 90° |
| 2026-05-07 23:57 | 6.04734 | 48.33788 | 34819 ft | 484 kts | 72° |
| 2026-05-07 23:57 | 6.06210 | 48.36825 | 34848 ft | 489 kts | 53° |
| 2026-05-07 23:58 | 6.08628 | 48.39228 | 34839 ft | 493 kts | 34° |
| 2026-05-07 23:58 | 6.11714 | 48.40716 | 34845 ft | 494 kts | 15° |
| 2026-05-07 23:58 | 7.85864 | 48.88795 | 34884 ft | 26351 kts | 14° |
| 2026-05-07 23:59 | 9.03609 | 49.19756 | 34965 ft | 491 kts | 16° |
| 2026-05-07 23:59 | 10.02124 | 49.63279 | 34835 ft | 25764 kts | 24° |
| 2026-05-07 23:59 | 10.61598 | 50.33504 | 34986 ft | 32000 kts | 12° |
| 2026-05-07 23:59 | 12.37819 | 51.15500 | 34905 ft | 27786 kts | 10° |
| 2026-05-08 00:00 | 12.75405 | 51.22730 | 34790 ft | 488 kts | 27° |
| 2026-05-08 00:00 | 14.11105 | 51.79746 | 34889 ft | 27743 kts | 23° |
| 2026-05-08 00:00 | 16.24362 | 52.55557 | 35030 ft | 485 kts | 26° |
| 2026-05-08 00:01 | 16.27237 | 52.57431 | 34924 ft | 485 kts | 33° |
| 2026-05-08 00:01 | 16.30219 | 52.59136 | 34860 ft | 493 kts | 23° |
| 2026-05-08 00:01 | 16.36669 | 52.61603 | 34877 ft | 502 kts | 18° |
| 2026-05-08 00:02 | 17.27907 | 52.94982 | 34878 ft | 26307 kts | 19° |
| 2026-05-08 00:02 | 17.99319 | 53.88770 | 34925 ft | 26947 kts | 353° |
| 2026-05-08 00:02 | 18.05756 | 54.23026 | 34760 ft | 502 kts | 10° |
| 2026-05-08 00:03 | 18.38265 | 54.30261 | 34851 ft | 27051 kts | 12° |
| 2026-05-08 00:03 | 19.70060 | 54.59710 | 34897 ft | 499 kts | 11° |
| 2026-05-08 00:03 | 19.73442 | 54.60377 | 35024 ft | 500 kts | 10° |
| 2026-05-08 00:03 | 19.76829 | 54.61192 | 35271 ft | 499 kts | 13° |
| 2026-05-08 00:04 | 19.80196 | 54.62094 | 35517 ft | 498 kts | 14° |
| 2026-05-08 00:04 | 19.83554 | 54.63005 | 35766 ft | 498 kts | 14° |
| 2026-05-08 00:04 | 21.64110 | 55.10825 | 35759 ft | 28244 kts | 14° |
| 2026-05-08 00:04 | 22.99833 | 55.47512 | 35922 ft | 28231 kts | 14° |
| 2026-05-08 00:05 | 23.35399 | 55.57366 | 35939 ft | 498 kts | 19° |
| 2026-05-08 00:05 | 23.38675 | 55.58591 | 36115 ft | 498 kts | 16° |
| 2026-05-08 00:05 | 23.45369 | 55.60689 | 36278 ft | 504 kts | 14° |
| 2026-05-08 00:06 | 23.52149 | 55.62692 | 36297 ft | 512 kts | 14° |
| 2026-05-08 00:06 | 23.59043 | 55.64786 | 36302 ft | 513 kts | 14° |
| 2026-05-08 00:07 | 23.62472 | 55.65848 | 36106 ft | 511 kts | 14° |
| 2026-05-08 00:07 | 23.65874 | 55.66909 | 36142 ft | 507 kts | 14° |
| 2026-05-08 00:07 | 23.69282 | 55.67973 | 35823 ft | 513 kts | 14° |
| 2026-05-08 00:07 | 23.72720 | 55.69046 | 35217 ft | 515 kts | 14° |
| 2026-05-08 00:08 | 23.76158 | 55.70119 | 34639 ft | 512 kts | 14° |
| 2026-05-08 00:08 | 23.79570 | 55.71184 | 34092 ft | 508 kts | 14° |
| 2026-05-08 00:08 | 23.82916 | 55.72229 | 33504 ft | 505 kts | 14° |
| 2026-05-08 00:08 | 23.86287 | 55.73281 | 32880 ft | 502 kts | 14° |
| 2026-05-08 00:09 | 23.89631 | 55.74325 | 32270 ft | 500 kts | 14° |
| 2026-05-08 00:09 | 23.92970 | 55.75368 | 31674 ft | 497 kts | 14° |
| 2026-05-08 00:09 | 23.96289 | 55.76404 | 31063 ft | 496 kts | 14° |
| 2026-05-08 00:09 | 23.99635 | 55.77449 | 30325 ft | 502 kts | 14° |
| 2026-05-08 00:10 | 24.03002 | 55.78502 | 29466 ft | 504 kts | 14° |
| 2026-05-08 00:10 | 24.06359 | 55.79554 | 28646 ft | 502 kts | 14° |
| 2026-05-08 00:10 | 24.09669 | 55.80590 | 27972 ft | 498 kts | 14° |
| 2026-05-08 00:10 | 24.12983 | 55.81629 | 27377 ft | 493 kts | 14° |
| 2026-05-08 00:11 | 24.16253 | 55.82655 | 26801 ft | 487 kts | 14° |
| 2026-05-08 00:11 | 24.19496 | 55.83672 | 26241 ft | 482 kts | 15° |
| 2026-05-08 00:11 | 24.22710 | 55.84681 | 25653 ft | 479 kts | 15° |
| 2026-05-08 00:11 | 24.25899 | 55.85683 | 25079 ft | 475 kts | 15° |
| 2026-05-08 00:12 | 24.29063 | 55.86677 | 24530 ft | 471 kts | 15° |
| 2026-05-08 00:12 | 24.32203 | 55.87664 | 23996 ft | 467 kts | 16° |
| 2026-05-08 00:12 | 24.35255 | 55.88848 | 23460 ft | 464 kts | 24° |
| 2026-05-08 00:12 | 24.38095 | 55.90503 | 22856 ft | 460 kts | 32° |
| 2026-05-08 00:13 | 24.40675 | 55.92467 | 22339 ft | 455 kts | 39° |
| 2026-05-08 00:13 | 24.43014 | 55.94766 | 21827 ft | 448 kts | 44° |
| 2026-05-08 00:13 | 24.45270 | 55.97089 | 21332 ft | 443 kts | 44° |
| 2026-05-08 00:13 | 24.47514 | 55.99386 | 20804 ft | 439 kts | 43° |
| 2026-05-08 00:14 | 24.49748 | 56.01643 | 20305 ft | 434 kts | 43° |
| 2026-05-08 00:14 | 24.51967 | 56.03867 | 19814 ft | 430 kts | 43° |
| 2026-05-08 00:14 | 24.54166 | 56.06065 | 19362 ft | 425 kts | 43° |
| 2026-05-08 00:14 | 24.56342 | 56.08239 | 18892 ft | 421 kts | 43° |
| 2026-05-08 00:15 | 24.58555 | 56.10299 | 18370 ft | 416 kts | 36° |
| 2026-05-08 00:15 | 24.61035 | 56.11841 | 17812 ft | 415 kts | 25° |
| 2026-05-08 00:15 | 24.63750 | 56.12897 | 17232 ft | 413 kts | 16° |
| 2026-05-08 00:15 | 24.66576 | 56.13450 | 16672 ft | 411 kts | 10° |
| 2026-05-08 00:16 | 24.69392 | 56.13898 | 16103 ft | 409 kts | 10° |
| 2026-05-08 00:16 | 24.72205 | 56.14380 | 15554 ft | 407 kts | 11° |
| 2026-05-08 00:16 | 24.74991 | 56.14880 | 14990 ft | 404 kts | 11° |
| 2026-05-08 00:16 | 24.77775 | 56.14995 | 14291 ft | 406 kts | 352° |
| 2026-05-08 00:17 | 24.80432 | 56.13917 | 13618 ft | 413 kts | 328° |
| 2026-05-08 00:17 | 24.82619 | 56.11886 | 13099 ft | 410 kts | 313° |
| 2026-05-08 00:17 | 24.84333 | 56.09412 | 12717 ft | 403 kts | 303° |
| 2026-05-08 00:17 | 24.85787 | 56.06899 | 12497 ft | 380 kts | 301° |
| 2026-05-08 00:18 | 24.87106 | 56.04522 | 12281 ft | 349 kts | 301° |
| 2026-05-08 00:18 | 24.88320 | 56.02326 | 12030 ft | 324 kts | 301° |
| 2026-05-08 00:18 | 24.89464 | 56.00271 | 11627 ft | 307 kts | 301° |
| 2026-05-08 00:18 | 24.90579 | 55.98285 | 11254 ft | 304 kts | 301° |
| 2026-05-08 00:19 | 24.91683 | 55.96334 | 11033 ft | 298 kts | 301° |
| 2026-05-08 00:19 | 24.92775 | 55.94407 | 10777 ft | 294 kts | 301° |
| 2026-05-08 00:19 | 24.93854 | 55.92506 | 10479 ft | 292 kts | 301° |
| 2026-05-08 00:19 | 24.94929 | 55.90610 | 10171 ft | 291 kts | 301° |
| 2026-05-08 00:20 | 24.95979 | 55.88758 | 9935 ft | 287 kts | 301° |
| 2026-05-08 00:20 | 24.97044 | 55.86877 | 9425 ft | 293 kts | 301° |
| 2026-05-08 00:20 | 24.98130 | 55.84958 | 8955 ft | 297 kts | 301° |
| 2026-05-08 00:20 | 24.99231 | 55.83010 | 8419 ft | 303 kts | 301° |
| 2026-05-08 00:21 | 25.00355 | 55.81023 | 7889 ft | 308 kts | 301° |
| 2026-05-08 00:21 | 25.01447 | 55.79095 | 7763 ft | 286 kts | 301° |
| 2026-05-08 00:21 | 25.02519 | 55.77243 | 7382 ft | 287 kts | 302° |
| 2026-05-08 00:21 | 25.03586 | 55.75412 | 7042 ft | 280 kts | 302° |
| 2026-05-08 00:22 | 25.04616 | 55.73646 | 6665 ft | 267 kts | 302° |
| 2026-05-08 00:22 | 25.05585 | 55.71981 | 6356 ft | 255 kts | 301° |
| 2026-05-08 00:22 | 25.06525 | 55.70362 | 5865 ft | 248 kts | 301° |
| 2026-05-08 00:22 | 25.07449 | 55.68768 | 5083 ft | 247 kts | 301° |
| 2026-05-08 00:23 | 25.08376 | 55.67171 | 4365 ft | 247 kts | 300° |
| 2026-05-08 00:23 | 25.09295 | 55.65582 | 3720 ft | 245 kts | 300° |
| 2026-05-08 00:23 | 25.10208 | 55.64039 | 3337 ft | 233 kts | 303° |
| 2026-05-08 00:23 | 25.11132 | 55.62596 | 3204 ft | 223 kts | 302° |
| 2026-05-08 00:24 | 25.11936 | 55.61245 | 3020 ft | 198 kts | 300° |
| 2026-05-08 00:24 | 25.12613 | 55.60051 | 3001 ft | 177 kts | 300° |
| 2026-05-08 00:24 | 25.13242 | 55.58924 | 3004 ft | 171 kts | 300° |
| 2026-05-08 00:24 | 25.13861 | 55.57807 | 3009 ft | 171 kts | 299° |
| 2026-05-08 00:25 | 25.14483 | 55.56686 | 3011 ft | 172 kts | 299° |
| 2026-05-08 00:25 | 25.15106 | 55.55562 | 3016 ft | 172 kts | 299° |
| 2026-05-08 00:25 | 25.15731 | 55.54433 | 3019 ft | 172 kts | 299° |
| 2026-05-08 00:25 | 25.16349 | 55.53319 | 3019 ft | 169 kts | 299° |
| 2026-05-08 00:26 | 25.16969 | 55.52198 | 2772 ft | 170 kts | 299° |
| 2026-05-08 00:26 | 25.17561 | 55.51132 | 2582 ft | 156 kts | 299° |
| 2026-05-08 00:26 | 25.18097 | 55.50163 | 2404 ft | 147 kts | 300° |
| 2026-05-08 00:26 | 25.18633 | 55.49194 | 2212 ft | 148 kts | 300° |
| 2026-05-08 00:27 | 25.19172 | 55.48220 | 2028 ft | 149 kts | 300° |
| 2026-05-08 00:27 | 25.19711 | 55.47246 | 1847 ft | 149 kts | 300° |
| 2026-05-08 00:27 | 25.20250 | 55.46273 | 1647 ft | 148 kts | 300° |
| 2026-05-08 00:27 | 25.20788 | 55.45303 | 1470 ft | 148 kts | 300° |
| 2026-05-08 00:28 | 25.21329 | 55.44324 | 1274 ft | 151 kts | 300° |
| 2026-05-08 00:28 | 25.21873 | 55.43342 | 1079 ft | 151 kts | 301° |
| 2026-05-08 00:28 | 25.22418 | 55.42356 | 903 ft | 151 kts | 300° |
| 2026-05-08 00:28 | 25.22980 | 55.41345 | 731 ft | 157 kts | 300° |
| 2026-05-08 00:29 | 25.23556 | 55.40306 | 564 ft | 160 kts | 300° |
| 2026-05-08 00:29 | 25.24138 | 55.39245 | 327 ft | 160 kts | 299° |
| 2026-05-08 00:29 | 25.24710 | 55.38202 | 105 ft | 159 kts | 300° |
| 2026-05-08 00:29 | 25.25272 | 55.37186 | 32 ft | 145 kts | 302° |
| 2026-05-08 00:30 | 25.25686 | 55.36439 | 30 ft | 85 kts | 301° |
| 2026-05-08 00:30 | 25.25904 | 55.36044 | 29 ft | 35 kts | 301° |
| 2026-05-08 00:30 | 25.25959 | 55.35803 | 28 ft | 25 kts | 271° |
| 2026-05-08 00:30 | 25.25959 | 55.35784 | 27 ft | 0 kts | 271° |
| 2026-05-08 00:31 | 25.25959 | 55.35783 | 27 ft | 0 kts | 271° |
| 2026-05-08 00:31 | 25.25960 | 55.35776 | 27 ft | 2 kts | 271° |
| 2026-05-08 00:31 | 25.25955 | 55.35760 | 27 ft | 4 kts | 253° |
| 2026-05-08 00:32 | 25.25894 | 55.35746 | 26 ft | 17 kts | 158° |
| 2026-05-08 00:32 | 25.25817 | 55.35860 | 27 ft | 18 kts | 122° |
| 2026-05-08 00:32 | 25.25743 | 55.35916 | 27 ft | 14 kts | 187° |
| 2026-05-08 00:32 | 25.25651 | 55.35866 | 26 ft | 16 kts | 210° |
| 2026-05-08 00:33 | 25.25549 | 55.35797 | 30 ft | 19 kts | 212° |
| 2026-05-08 00:33 | 25.25455 | 55.35714 | 29 ft | 12 kts | 231° |
| 2026-05-08 00:33 | 25.25393 | 55.35647 | 30 ft | 14 kts | 211° |
| 2026-05-08 00:33 | 25.25321 | 55.35599 | 30 ft | 2 kts | 212° |
| 2026-05-08 00:34 | 25.25300 | 55.35585 | 29 ft | 5 kts | 211° |
| 2026-05-08 00:34 | 25.25285 | 55.35574 | 29 ft | 0 kts | 211° |